<?xml version="1.0" encoding="UTF-8"?>
<gpx xmlns="http://www.topografix.com/GPX/1/1" xmlns:gpsies="https://www.gpsies.com/GPX/1/0" creator="GPSies https://www.gpsies.com - zoo-standart" version="1.1" xmlns:xsi="http://www.w3.org/2001/XMLSchema-instance" xsi:schemaLocation="http://www.topografix.com/GPX/1/1 http://www.topografix.com/GPX/1/1/gpx.xsd https://www.gpsies.com/GPX/1/0 https://www.gpsies.com/gpsies.xsd">
  <metadata>
    <name>zoo-standart</name>
    <author>
      <name>igor968</name>
      <link href="https://www.gpsies.com/mapUser.do?username=igor968">
        <text>igor968 on GPSies.com</text>
        <type>GPSiesUserOnWeb</type>
      </link>
    </author>
    <link href="https://www.gpsies.com/map.do?fileId=cqooubbkrekkfhom">
      <text>zoo-standart on GPSies.com</text>
      <type>trackOnWeb</type>
    </link>
    <time>2019-05-06T22:27:29Z</time>
    <extensions>
      <gpsies:property>round trip</gpsies:property>
      <gpsies:trackLengthMeter>30376.21656834201</gpsies:trackLengthMeter>
      <gpsies:totalAscentMeter>492.0</gpsies:totalAscentMeter>
      <gpsies:totalDescentMeter>491.0</gpsies:totalDescentMeter>
      <gpsies:minHeightMeter>421.0</gpsies:minHeightMeter>
      <gpsies:maxHeightMeter>688.0</gpsies:maxHeightMeter>
    </extensions>
  </metadata>
  <trk>
    <name>zoo-standart on GPSies.com</name>
    <link href="https://www.gpsies.com/map.do?fileId=cqooubbkrekkfhom">
      <type>trackOnWeb</type>
    </link>
    <link href="https://www.gpsies.com/charts/cq/map/cqooubbkrekkfhom_map.png">
      <type>elevationChartUrlMap</type>
    </link>
    <link href="https://www.gpsies.com/charts/cq/mapThumb/cqooubbkrekkfhom_mapThumb.png">
      <type>elevationChartUrlMapThumb</type>
    </link>
    <link href="https://www.gpsies.com/charts/cq/tab/cqooubbkrekkfhom_tab.png">
      <type>elevationChartUrlTab</type>
    </link>
    <trkseg>
      <trkpt lat="31.75867750" lon="35.08898010">
        <ele>421.00000</ele>
        <time>2010-01-01T00:00:00Z</time>
      </trkpt>
      <trkpt lat="31.75867000" lon="35.08897000">
        <ele>421.00000</ele>
        <time>2010-01-01T00:00:00Z</time>
      </trkpt>
      <trkpt lat="31.75846000" lon="35.08896000">
        <ele>421.00000</ele>
        <time>2010-01-01T00:00:08Z</time>
      </trkpt>
      <trkpt lat="31.75834000" lon="35.08918000">
        <ele>422.00000</ele>
        <time>2010-01-01T00:00:17Z</time>
      </trkpt>
      <trkpt lat="31.75828000" lon="35.08949000">
        <ele>422.00000</ele>
        <time>2010-01-01T00:00:28Z</time>
      </trkpt>
      <trkpt lat="31.75825000" lon="35.08956000">
        <ele>423.00000</ele>
        <time>2010-01-01T00:00:31Z</time>
      </trkpt>
      <trkpt lat="31.75820000" lon="35.08958000">
        <ele>424.00000</ele>
        <time>2010-01-01T00:00:33Z</time>
      </trkpt>
      <trkpt lat="31.75813000" lon="35.08955000">
        <ele>425.00000</ele>
        <time>2010-01-01T00:00:36Z</time>
      </trkpt>
      <trkpt lat="31.75818000" lon="35.08924000">
        <ele>423.00000</ele>
        <time>2010-01-01T00:00:47Z</time>
      </trkpt>
      <trkpt lat="31.75802000" lon="35.08923000">
        <ele>424.00000</ele>
        <time>2010-01-01T00:00:53Z</time>
      </trkpt>
      <trkpt lat="31.75771000" lon="35.08928000">
        <ele>427.00000</ele>
        <time>2010-01-01T00:01:06Z</time>
      </trkpt>
      <trkpt lat="31.75755000" lon="35.08933000">
        <ele>428.00000</ele>
        <time>2010-01-01T00:01:12Z</time>
      </trkpt>
      <trkpt lat="31.75746000" lon="35.08938000">
        <ele>429.00000</ele>
        <time>2010-01-01T00:01:16Z</time>
      </trkpt>
      <trkpt lat="31.75724000" lon="35.08955000">
        <ele>430.00000</ele>
        <time>2010-01-01T00:01:27Z</time>
      </trkpt>
      <trkpt lat="31.75704000" lon="35.08962000">
        <ele>431.00000</ele>
        <time>2010-01-01T00:01:35Z</time>
      </trkpt>
      <trkpt lat="31.75669000" lon="35.08963000">
        <ele>434.00000</ele>
        <time>2010-01-01T00:01:49Z</time>
      </trkpt>
      <trkpt lat="31.75656000" lon="35.08960000">
        <ele>433.00000</ele>
        <time>2010-01-01T00:01:54Z</time>
      </trkpt>
      <trkpt lat="31.75637000" lon="35.08951000">
        <ele>430.00000</ele>
        <time>2010-01-01T00:02:03Z</time>
      </trkpt>
      <trkpt lat="31.75607000" lon="35.08928000">
        <ele>432.00000</ele>
        <time>2010-01-01T00:02:17Z</time>
      </trkpt>
      <trkpt lat="31.75580000" lon="35.08903000">
        <ele>435.00000</ele>
        <time>2010-01-01T00:02:31Z</time>
      </trkpt>
      <trkpt lat="31.75573000" lon="35.08899000">
        <ele>435.00000</ele>
        <time>2010-01-01T00:02:34Z</time>
      </trkpt>
      <trkpt lat="31.75566000" lon="35.08897000">
        <ele>435.00000</ele>
        <time>2010-01-01T00:02:37Z</time>
      </trkpt>
      <trkpt lat="31.75565000" lon="35.08897000">
        <ele>435.00000</ele>
        <time>2010-01-01T00:02:37Z</time>
      </trkpt>
      <trkpt lat="31.75531000" lon="35.08900000">
        <ele>433.00000</ele>
        <time>2010-01-01T00:02:51Z</time>
      </trkpt>
      <trkpt lat="31.75521000" lon="35.08898000">
        <ele>433.00000</ele>
        <time>2010-01-01T00:02:55Z</time>
      </trkpt>
      <trkpt lat="31.75483000" lon="35.08881000">
        <ele>436.00000</ele>
        <time>2010-01-01T00:03:11Z</time>
      </trkpt>
      <trkpt lat="31.75442000" lon="35.08859000">
        <ele>441.00000</ele>
        <time>2010-01-01T00:03:29Z</time>
      </trkpt>
      <trkpt lat="31.75428000" lon="35.08846000">
        <ele>443.00000</ele>
        <time>2010-01-01T00:03:36Z</time>
      </trkpt>
      <trkpt lat="31.75410000" lon="35.08821000">
        <ele>442.00000</ele>
        <time>2010-01-01T00:03:47Z</time>
      </trkpt>
      <trkpt lat="31.75398000" lon="35.08798000">
        <ele>438.00000</ele>
        <time>2010-01-01T00:03:57Z</time>
      </trkpt>
      <trkpt lat="31.75389000" lon="35.08773000">
        <ele>436.00000</ele>
        <time>2010-01-01T00:04:06Z</time>
      </trkpt>
      <trkpt lat="31.75376000" lon="35.08710000">
        <ele>439.00000</ele>
        <time>2010-01-01T00:04:28Z</time>
      </trkpt>
      <trkpt lat="31.75371000" lon="35.08681000">
        <ele>440.00000</ele>
        <time>2010-01-01T00:04:38Z</time>
      </trkpt>
      <trkpt lat="31.75351000" lon="35.08604000">
        <ele>438.00000</ele>
        <time>2010-01-01T00:05:05Z</time>
      </trkpt>
      <trkpt lat="31.75345000" lon="35.08592000">
        <ele>438.00000</ele>
        <time>2010-01-01T00:05:10Z</time>
      </trkpt>
      <trkpt lat="31.75334000" lon="35.08578000">
        <ele>438.00000</ele>
        <time>2010-01-01T00:05:17Z</time>
      </trkpt>
      <trkpt lat="31.75325000" lon="35.08570000">
        <ele>439.00000</ele>
        <time>2010-01-01T00:05:21Z</time>
      </trkpt>
      <trkpt lat="31.75313000" lon="35.08564000">
        <ele>439.00000</ele>
        <time>2010-01-01T00:05:26Z</time>
      </trkpt>
      <trkpt lat="31.75288000" lon="35.08559000">
        <ele>440.00000</ele>
        <time>2010-01-01T00:05:36Z</time>
      </trkpt>
      <trkpt lat="31.75220000" lon="35.08559000">
        <ele>440.00000</ele>
        <time>2010-01-01T00:06:04Z</time>
      </trkpt>
      <trkpt lat="31.75184000" lon="35.08563000">
        <ele>444.00000</ele>
        <time>2010-01-01T00:06:18Z</time>
      </trkpt>
      <trkpt lat="31.75166000" lon="35.08563000">
        <ele>446.00000</ele>
        <time>2010-01-01T00:06:25Z</time>
      </trkpt>
      <trkpt lat="31.75106000" lon="35.08558000">
        <ele>444.00000</ele>
        <time>2010-01-01T00:06:49Z</time>
      </trkpt>
      <trkpt lat="31.75106000" lon="35.08557000">
        <ele>444.00000</ele>
        <time>2010-01-01T00:06:50Z</time>
      </trkpt>
      <trkpt lat="31.75063000" lon="35.08553000">
        <ele>443.00000</ele>
        <time>2010-01-01T00:07:07Z</time>
      </trkpt>
      <trkpt lat="31.75051000" lon="35.08555000">
        <ele>443.00000</ele>
        <time>2010-01-01T00:07:12Z</time>
      </trkpt>
      <trkpt lat="31.75042000" lon="35.08559000">
        <ele>443.00000</ele>
        <time>2010-01-01T00:07:16Z</time>
      </trkpt>
      <trkpt lat="31.75025000" lon="35.08573000">
        <ele>444.00000</ele>
        <time>2010-01-01T00:07:24Z</time>
      </trkpt>
      <trkpt lat="31.74989000" lon="35.08605000">
        <ele>444.00000</ele>
        <time>2010-01-01T00:07:42Z</time>
      </trkpt>
      <trkpt lat="31.74982000" lon="35.08614000">
        <ele>444.00000</ele>
        <time>2010-01-01T00:07:46Z</time>
      </trkpt>
      <trkpt lat="31.74976000" lon="35.08629000">
        <ele>443.00000</ele>
        <time>2010-01-01T00:07:52Z</time>
      </trkpt>
      <trkpt lat="31.74974000" lon="35.08643000">
        <ele>443.00000</ele>
        <time>2010-01-01T00:07:57Z</time>
      </trkpt>
      <trkpt lat="31.74975000" lon="35.08653000">
        <ele>443.00000</ele>
        <time>2010-01-01T00:08:00Z</time>
      </trkpt>
      <trkpt lat="31.74981000" lon="35.08669000">
        <ele>443.00000</ele>
        <time>2010-01-01T00:08:06Z</time>
      </trkpt>
      <trkpt lat="31.75005000" lon="35.08712000">
        <ele>444.00000</ele>
        <time>2010-01-01T00:08:24Z</time>
      </trkpt>
      <trkpt lat="31.75021000" lon="35.08749000">
        <ele>445.00000</ele>
        <time>2010-01-01T00:08:38Z</time>
      </trkpt>
      <trkpt lat="31.75049000" lon="35.08799000">
        <ele>446.00000</ele>
        <time>2010-01-01T00:08:58Z</time>
      </trkpt>
      <trkpt lat="31.75059000" lon="35.08813000">
        <ele>447.00000</ele>
        <time>2010-01-01T00:09:04Z</time>
      </trkpt>
      <trkpt lat="31.75074000" lon="35.08832000">
        <ele>450.00000</ele>
        <time>2010-01-01T00:09:13Z</time>
      </trkpt>
      <trkpt lat="31.75080000" lon="35.08842000">
        <ele>452.00000</ele>
        <time>2010-01-01T00:09:17Z</time>
      </trkpt>
      <trkpt lat="31.75083000" lon="35.08850000">
        <ele>452.00000</ele>
        <time>2010-01-01T00:09:20Z</time>
      </trkpt>
      <trkpt lat="31.75086000" lon="35.08881000">
        <ele>453.00000</ele>
        <time>2010-01-01T00:09:31Z</time>
      </trkpt>
      <trkpt lat="31.75086000" lon="35.08899000">
        <ele>453.00000</ele>
        <time>2010-01-01T00:09:37Z</time>
      </trkpt>
      <trkpt lat="31.75084000" lon="35.08921000">
        <ele>453.00000</ele>
        <time>2010-01-01T00:09:45Z</time>
      </trkpt>
      <trkpt lat="31.75080000" lon="35.08944000">
        <ele>452.00000</ele>
        <time>2010-01-01T00:09:53Z</time>
      </trkpt>
      <trkpt lat="31.75075000" lon="35.08962000">
        <ele>453.00000</ele>
        <time>2010-01-01T00:09:59Z</time>
      </trkpt>
      <trkpt lat="31.75056000" lon="35.08998000">
        <ele>451.00000</ele>
        <time>2010-01-01T00:10:13Z</time>
      </trkpt>
      <trkpt lat="31.75051000" lon="35.09014000">
        <ele>449.00000</ele>
        <time>2010-01-01T00:10:19Z</time>
      </trkpt>
      <trkpt lat="31.75047000" lon="35.09041000">
        <ele>449.00000</ele>
        <time>2010-01-01T00:10:29Z</time>
      </trkpt>
      <trkpt lat="31.75048000" lon="35.09073000">
        <ele>451.00000</ele>
        <time>2010-01-01T00:10:39Z</time>
      </trkpt>
      <trkpt lat="31.75056000" lon="35.09127000">
        <ele>452.00000</ele>
        <time>2010-01-01T00:10:58Z</time>
      </trkpt>
      <trkpt lat="31.75061000" lon="35.09148000">
        <ele>454.00000</ele>
        <time>2010-01-01T00:11:06Z</time>
      </trkpt>
      <trkpt lat="31.75071000" lon="35.09171000">
        <ele>456.00000</ele>
        <time>2010-01-01T00:11:14Z</time>
      </trkpt>
      <trkpt lat="31.75093000" lon="35.09205000">
        <ele>461.00000</ele>
        <time>2010-01-01T00:11:29Z</time>
      </trkpt>
      <trkpt lat="31.75098000" lon="35.09222000">
        <ele>462.00000</ele>
        <time>2010-01-01T00:11:35Z</time>
      </trkpt>
      <trkpt lat="31.75098000" lon="35.09248000">
        <ele>463.00000</ele>
        <time>2010-01-01T00:11:44Z</time>
      </trkpt>
      <trkpt lat="31.75094000" lon="35.09275000">
        <ele>466.00000</ele>
        <time>2010-01-01T00:11:53Z</time>
      </trkpt>
      <trkpt lat="31.75087000" lon="35.09300000">
        <ele>466.00000</ele>
        <time>2010-01-01T00:12:02Z</time>
      </trkpt>
      <trkpt lat="31.75078000" lon="35.09313000">
        <ele>464.00000</ele>
        <time>2010-01-01T00:12:08Z</time>
      </trkpt>
      <trkpt lat="31.75059000" lon="35.09325000">
        <ele>460.00000</ele>
        <time>2010-01-01T00:12:16Z</time>
      </trkpt>
      <trkpt lat="31.75046000" lon="35.09330000">
        <ele>459.00000</ele>
        <time>2010-01-01T00:12:22Z</time>
      </trkpt>
      <trkpt lat="31.75000000" lon="35.09337000">
        <ele>462.00000</ele>
        <time>2010-01-01T00:12:41Z</time>
      </trkpt>
      <trkpt lat="31.74977000" lon="35.09344000">
        <ele>464.00000</ele>
        <time>2010-01-01T00:12:50Z</time>
      </trkpt>
      <trkpt lat="31.74929000" lon="35.09362000">
        <ele>465.00000</ele>
        <time>2010-01-01T00:13:10Z</time>
      </trkpt>
      <trkpt lat="31.74906000" lon="35.09364000">
        <ele>465.00000</ele>
        <time>2010-01-01T00:13:19Z</time>
      </trkpt>
      <trkpt lat="31.74820000" lon="35.09410000">
        <ele>470.00000</ele>
        <time>2010-01-01T00:13:57Z</time>
      </trkpt>
      <trkpt lat="31.74774000" lon="35.09446000">
        <ele>475.00000</ele>
        <time>2010-01-01T00:14:19Z</time>
      </trkpt>
      <trkpt lat="31.74752000" lon="35.09457000">
        <ele>477.00000</ele>
        <time>2010-01-01T00:14:29Z</time>
      </trkpt>
      <trkpt lat="31.74737000" lon="35.09460000">
        <ele>474.00000</ele>
        <time>2010-01-01T00:14:35Z</time>
      </trkpt>
      <trkpt lat="31.74724000" lon="35.09461000">
        <ele>470.00000</ele>
        <time>2010-01-01T00:14:40Z</time>
      </trkpt>
      <trkpt lat="31.74713000" lon="35.09460000">
        <ele>469.00000</ele>
        <time>2010-01-01T00:14:45Z</time>
      </trkpt>
      <trkpt lat="31.74700000" lon="35.09455000">
        <ele>467.00000</ele>
        <time>2010-01-01T00:14:50Z</time>
      </trkpt>
      <trkpt lat="31.74686000" lon="35.09447000">
        <ele>465.00000</ele>
        <time>2010-01-01T00:14:56Z</time>
      </trkpt>
      <trkpt lat="31.74678000" lon="35.09439000">
        <ele>465.00000</ele>
        <time>2010-01-01T00:15:01Z</time>
      </trkpt>
      <trkpt lat="31.74664000" lon="35.09421000">
        <ele>466.00000</ele>
        <time>2010-01-01T00:15:09Z</time>
      </trkpt>
      <trkpt lat="31.74660000" lon="35.09410000">
        <ele>466.00000</ele>
        <time>2010-01-01T00:15:13Z</time>
      </trkpt>
      <trkpt lat="31.74656000" lon="35.09382000">
        <ele>464.00000</ele>
        <time>2010-01-01T00:15:23Z</time>
      </trkpt>
      <trkpt lat="31.74651000" lon="35.09373000">
        <ele>464.00000</ele>
        <time>2010-01-01T00:15:26Z</time>
      </trkpt>
      <trkpt lat="31.74646000" lon="35.09369000">
        <ele>465.00000</ele>
        <time>2010-01-01T00:15:29Z</time>
      </trkpt>
      <trkpt lat="31.74637000" lon="35.09367000">
        <ele>466.00000</ele>
        <time>2010-01-01T00:15:32Z</time>
      </trkpt>
      <trkpt lat="31.74627000" lon="35.09368000">
        <ele>468.00000</ele>
        <time>2010-01-01T00:15:36Z</time>
      </trkpt>
      <trkpt lat="31.74611000" lon="35.09373000">
        <ele>471.00000</ele>
        <time>2010-01-01T00:15:43Z</time>
      </trkpt>
      <trkpt lat="31.74570000" lon="35.09393000">
        <ele>471.00000</ele>
        <time>2010-01-01T00:16:01Z</time>
      </trkpt>
      <trkpt lat="31.74556000" lon="35.09395000">
        <ele>470.00000</ele>
        <time>2010-01-01T00:16:06Z</time>
      </trkpt>
      <trkpt lat="31.74522000" lon="35.09395000">
        <ele>471.00000</ele>
        <time>2010-01-01T00:16:20Z</time>
      </trkpt>
      <trkpt lat="31.74511000" lon="35.09397000">
        <ele>471.00000</ele>
        <time>2010-01-01T00:16:25Z</time>
      </trkpt>
      <trkpt lat="31.74470000" lon="35.09411000">
        <ele>472.00000</ele>
        <time>2010-01-01T00:16:42Z</time>
      </trkpt>
      <trkpt lat="31.74436000" lon="35.09427000">
        <ele>471.00000</ele>
        <time>2010-01-01T00:16:56Z</time>
      </trkpt>
      <trkpt lat="31.74422000" lon="35.09431000">
        <ele>472.00000</ele>
        <time>2010-01-01T00:17:02Z</time>
      </trkpt>
      <trkpt lat="31.74410000" lon="35.09440000">
        <ele>471.00000</ele>
        <time>2010-01-01T00:17:08Z</time>
      </trkpt>
      <trkpt lat="31.74402000" lon="35.09452000">
        <ele>472.00000</ele>
        <time>2010-01-01T00:17:13Z</time>
      </trkpt>
      <trkpt lat="31.74386000" lon="35.09482000">
        <ele>473.00000</ele>
        <time>2010-01-01T00:17:25Z</time>
      </trkpt>
      <trkpt lat="31.74377000" lon="35.09490000">
        <ele>473.00000</ele>
        <time>2010-01-01T00:17:29Z</time>
      </trkpt>
      <trkpt lat="31.74360000" lon="35.09503000">
        <ele>474.00000</ele>
        <time>2010-01-01T00:17:38Z</time>
      </trkpt>
      <trkpt lat="31.74337000" lon="35.09513000">
        <ele>476.00000</ele>
        <time>2010-01-01T00:17:47Z</time>
      </trkpt>
      <trkpt lat="31.74328000" lon="35.09515000">
        <ele>475.00000</ele>
        <time>2010-01-01T00:17:51Z</time>
      </trkpt>
      <trkpt lat="31.74310000" lon="35.09515000">
        <ele>474.00000</ele>
        <time>2010-01-01T00:17:58Z</time>
      </trkpt>
      <trkpt lat="31.74295000" lon="35.09512000">
        <ele>472.00000</ele>
        <time>2010-01-01T00:18:04Z</time>
      </trkpt>
      <trkpt lat="31.74255000" lon="35.09497000">
        <ele>470.00000</ele>
        <time>2010-01-01T00:18:21Z</time>
      </trkpt>
      <trkpt lat="31.74227000" lon="35.09492000">
        <ele>472.00000</ele>
        <time>2010-01-01T00:18:33Z</time>
      </trkpt>
      <trkpt lat="31.74217000" lon="35.09492000">
        <ele>473.00000</ele>
        <time>2010-01-01T00:18:37Z</time>
      </trkpt>
      <trkpt lat="31.74199000" lon="35.09497000">
        <ele>473.00000</ele>
        <time>2010-01-01T00:18:44Z</time>
      </trkpt>
      <trkpt lat="31.74189000" lon="35.09504000">
        <ele>472.00000</ele>
        <time>2010-01-01T00:18:49Z</time>
      </trkpt>
      <trkpt lat="31.74177000" lon="35.09515000">
        <ele>472.00000</ele>
        <time>2010-01-01T00:18:55Z</time>
      </trkpt>
      <trkpt lat="31.74165000" lon="35.09531000">
        <ele>472.00000</ele>
        <time>2010-01-01T00:19:02Z</time>
      </trkpt>
      <trkpt lat="31.74157000" lon="35.09544000">
        <ele>472.00000</ele>
        <time>2010-01-01T00:19:07Z</time>
      </trkpt>
      <trkpt lat="31.74147000" lon="35.09567000">
        <ele>472.00000</ele>
        <time>2010-01-01T00:19:16Z</time>
      </trkpt>
      <trkpt lat="31.74136000" lon="35.09602000">
        <ele>473.00000</ele>
        <time>2010-01-01T00:19:29Z</time>
      </trkpt>
      <trkpt lat="31.74135000" lon="35.09620000">
        <ele>474.00000</ele>
        <time>2010-01-01T00:19:35Z</time>
      </trkpt>
      <trkpt lat="31.74141000" lon="35.09661000">
        <ele>475.00000</ele>
        <time>2010-01-01T00:19:49Z</time>
      </trkpt>
      <trkpt lat="31.74143000" lon="35.09689000">
        <ele>475.00000</ele>
        <time>2010-01-01T00:19:59Z</time>
      </trkpt>
      <trkpt lat="31.74165000" lon="35.09772000">
        <ele>476.00000</ele>
        <time>2010-01-01T00:20:28Z</time>
      </trkpt>
      <trkpt lat="31.74183000" lon="35.09808000">
        <ele>475.00000</ele>
        <time>2010-01-01T00:20:43Z</time>
      </trkpt>
      <trkpt lat="31.74203000" lon="35.09839000">
        <ele>475.00000</ele>
        <time>2010-01-01T00:20:56Z</time>
      </trkpt>
      <trkpt lat="31.74241000" lon="35.09887000">
        <ele>479.00000</ele>
        <time>2010-01-01T00:21:18Z</time>
      </trkpt>
      <trkpt lat="31.74302000" lon="35.09995000">
        <ele>488.00000</ele>
        <time>2010-01-01T00:22:02Z</time>
      </trkpt>
      <trkpt lat="31.74307000" lon="35.10007000">
        <ele>488.00000</ele>
        <time>2010-01-01T00:22:07Z</time>
      </trkpt>
      <trkpt lat="31.74310000" lon="35.10022000">
        <ele>486.00000</ele>
        <time>2010-01-01T00:22:12Z</time>
      </trkpt>
      <trkpt lat="31.74316000" lon="35.10057000">
        <ele>484.00000</ele>
        <time>2010-01-01T00:22:24Z</time>
      </trkpt>
      <trkpt lat="31.74317000" lon="35.10078000">
        <ele>483.00000</ele>
        <time>2010-01-01T00:22:31Z</time>
      </trkpt>
      <trkpt lat="31.74317000" lon="35.10077000">
        <ele>484.00000</ele>
        <time>2010-01-01T00:22:32Z</time>
      </trkpt>
      <trkpt lat="31.74315000" lon="35.10120000">
        <ele>484.00000</ele>
        <time>2010-01-01T00:22:46Z</time>
      </trkpt>
      <trkpt lat="31.74315000" lon="35.10197000">
        <ele>483.00000</ele>
        <time>2010-01-01T00:23:13Z</time>
      </trkpt>
      <trkpt lat="31.74312000" lon="35.10253000">
        <ele>484.00000</ele>
        <time>2010-01-01T00:23:32Z</time>
      </trkpt>
      <trkpt lat="31.74280000" lon="35.10355000">
        <ele>483.00000</ele>
        <time>2010-01-01T00:24:09Z</time>
      </trkpt>
      <trkpt lat="31.74276000" lon="35.10370000">
        <ele>484.00000</ele>
        <time>2010-01-01T00:24:14Z</time>
      </trkpt>
      <trkpt lat="31.74275000" lon="35.10387000">
        <ele>484.00000</ele>
        <time>2010-01-01T00:24:20Z</time>
      </trkpt>
      <trkpt lat="31.74279000" lon="35.10418000">
        <ele>484.00000</ele>
        <time>2010-01-01T00:24:31Z</time>
      </trkpt>
      <trkpt lat="31.74282000" lon="35.10433000">
        <ele>484.00000</ele>
        <time>2010-01-01T00:24:36Z</time>
      </trkpt>
      <trkpt lat="31.74292000" lon="35.10453000">
        <ele>486.00000</ele>
        <time>2010-01-01T00:24:44Z</time>
      </trkpt>
      <trkpt lat="31.74296000" lon="35.10469000">
        <ele>486.00000</ele>
        <time>2010-01-01T00:24:49Z</time>
      </trkpt>
      <trkpt lat="31.74295000" lon="35.10477000">
        <ele>486.00000</ele>
        <time>2010-01-01T00:24:52Z</time>
      </trkpt>
      <trkpt lat="31.74259000" lon="35.10587000">
        <ele>492.00000</ele>
        <time>2010-01-01T00:25:32Z</time>
      </trkpt>
      <trkpt lat="31.74254000" lon="35.10606000">
        <ele>494.00000</ele>
        <time>2010-01-01T00:25:39Z</time>
      </trkpt>
      <trkpt lat="31.74248000" lon="35.10621000">
        <ele>496.00000</ele>
        <time>2010-01-01T00:25:45Z</time>
      </trkpt>
      <trkpt lat="31.74237000" lon="35.10635000">
        <ele>496.00000</ele>
        <time>2010-01-01T00:25:51Z</time>
      </trkpt>
      <trkpt lat="31.74225000" lon="35.10642000">
        <ele>493.00000</ele>
        <time>2010-01-01T00:25:57Z</time>
      </trkpt>
      <trkpt lat="31.74147000" lon="35.10673000">
        <ele>489.00000</ele>
        <time>2010-01-01T00:26:29Z</time>
      </trkpt>
      <trkpt lat="31.74137000" lon="35.10682000">
        <ele>490.00000</ele>
        <time>2010-01-01T00:26:35Z</time>
      </trkpt>
      <trkpt lat="31.74108000" lon="35.10729000">
        <ele>492.00000</ele>
        <time>2010-01-01T00:26:54Z</time>
      </trkpt>
      <trkpt lat="31.74099000" lon="35.10762000">
        <ele>492.00000</ele>
        <time>2010-01-01T00:27:06Z</time>
      </trkpt>
      <trkpt lat="31.74107000" lon="35.10788000">
        <ele>493.00000</ele>
        <time>2010-01-01T00:27:15Z</time>
      </trkpt>
      <trkpt lat="31.74147000" lon="35.10848000">
        <ele>501.00000</ele>
        <time>2010-01-01T00:27:41Z</time>
      </trkpt>
      <trkpt lat="31.74151000" lon="35.10879000">
        <ele>501.00000</ele>
        <time>2010-01-01T00:27:52Z</time>
      </trkpt>
      <trkpt lat="31.74139000" lon="35.10918000">
        <ele>498.00000</ele>
        <time>2010-01-01T00:28:06Z</time>
      </trkpt>
      <trkpt lat="31.74131000" lon="35.10957000">
        <ele>499.00000</ele>
        <time>2010-01-01T00:28:20Z</time>
      </trkpt>
      <trkpt lat="31.74118000" lon="35.11021000">
        <ele>501.00000</ele>
        <time>2010-01-01T00:28:42Z</time>
      </trkpt>
      <trkpt lat="31.74087000" lon="35.11077000">
        <ele>500.00000</ele>
        <time>2010-01-01T00:29:05Z</time>
      </trkpt>
      <trkpt lat="31.74061000" lon="35.11116000">
        <ele>503.00000</ele>
        <time>2010-01-01T00:29:22Z</time>
      </trkpt>
      <trkpt lat="31.74023000" lon="35.11143000">
        <ele>506.00000</ele>
        <time>2010-01-01T00:29:40Z</time>
      </trkpt>
      <trkpt lat="31.73876000" lon="35.11201000">
        <ele>501.00000</ele>
        <time>2010-01-01T00:30:42Z</time>
      </trkpt>
      <trkpt lat="31.73851000" lon="35.11226000">
        <ele>503.00000</ele>
        <time>2010-01-01T00:30:55Z</time>
      </trkpt>
      <trkpt lat="31.73801000" lon="35.11300000">
        <ele>507.00000</ele>
        <time>2010-01-01T00:31:27Z</time>
      </trkpt>
      <trkpt lat="31.73767000" lon="35.11373000">
        <ele>508.00000</ele>
        <time>2010-01-01T00:31:55Z</time>
      </trkpt>
      <trkpt lat="31.73748000" lon="35.11405000">
        <ele>507.00000</ele>
        <time>2010-01-01T00:32:09Z</time>
      </trkpt>
      <trkpt lat="31.73741000" lon="35.11438000">
        <ele>512.00000</ele>
        <time>2010-01-01T00:32:20Z</time>
      </trkpt>
      <trkpt lat="31.73736000" lon="35.11448000">
        <ele>513.00000</ele>
        <time>2010-01-01T00:32:24Z</time>
      </trkpt>
      <trkpt lat="31.73728000" lon="35.11447000">
        <ele>513.00000</ele>
        <time>2010-01-01T00:32:27Z</time>
      </trkpt>
      <trkpt lat="31.73721000" lon="35.11448000">
        <ele>513.00000</ele>
        <time>2010-01-01T00:32:30Z</time>
      </trkpt>
      <trkpt lat="31.73715000" lon="35.11464000">
        <ele>514.00000</ele>
        <time>2010-01-01T00:32:36Z</time>
      </trkpt>
      <trkpt lat="31.73714000" lon="35.11493000">
        <ele>513.00000</ele>
        <time>2010-01-01T00:32:46Z</time>
      </trkpt>
      <trkpt lat="31.73702000" lon="35.11538000">
        <ele>511.00000</ele>
        <time>2010-01-01T00:33:02Z</time>
      </trkpt>
      <trkpt lat="31.73680000" lon="35.11619000">
        <ele>510.00000</ele>
        <time>2010-01-01T00:33:31Z</time>
      </trkpt>
      <trkpt lat="31.73613000" lon="35.11730000">
        <ele>512.00000</ele>
        <time>2010-01-01T00:34:17Z</time>
      </trkpt>
      <trkpt lat="31.73595000" lon="35.11781000">
        <ele>517.00000</ele>
        <time>2010-01-01T00:34:36Z</time>
      </trkpt>
      <trkpt lat="31.73591000" lon="35.11840000">
        <ele>515.00000</ele>
        <time>2010-01-01T00:34:56Z</time>
      </trkpt>
      <trkpt lat="31.73600000" lon="35.11867000">
        <ele>514.00000</ele>
        <time>2010-01-01T00:35:06Z</time>
      </trkpt>
      <trkpt lat="31.73622000" lon="35.11856000">
        <ele>514.00000</ele>
        <time>2010-01-01T00:35:16Z</time>
      </trkpt>
      <trkpt lat="31.73629000" lon="35.11856000">
        <ele>515.00000</ele>
        <time>2010-01-01T00:35:19Z</time>
      </trkpt>
      <trkpt lat="31.73673000" lon="35.11878000">
        <ele>519.00000</ele>
        <time>2010-01-01T00:35:38Z</time>
      </trkpt>
      <trkpt lat="31.73694000" lon="35.11884000">
        <ele>518.00000</ele>
        <time>2010-01-01T00:35:46Z</time>
      </trkpt>
      <trkpt lat="31.73782000" lon="35.11894000">
        <ele>527.00000</ele>
        <time>2010-01-01T00:36:22Z</time>
      </trkpt>
      <trkpt lat="31.73781000" lon="35.11894000">
        <ele>527.00000</ele>
        <time>2010-01-01T00:36:22Z</time>
      </trkpt>
      <trkpt lat="31.73874000" lon="35.11904000">
        <ele>531.00000</ele>
        <time>2010-01-01T00:37:00Z</time>
      </trkpt>
      <trkpt lat="31.73949000" lon="35.11915000">
        <ele>525.00000</ele>
        <time>2010-01-01T00:37:30Z</time>
      </trkpt>
      <trkpt lat="31.73994000" lon="35.11924000">
        <ele>529.00000</ele>
        <time>2010-01-01T00:37:48Z</time>
      </trkpt>
      <trkpt lat="31.74027000" lon="35.11928000">
        <ele>533.00000</ele>
        <time>2010-01-01T00:38:01Z</time>
      </trkpt>
      <trkpt lat="31.74075000" lon="35.11943000">
        <ele>540.00000</ele>
        <time>2010-01-01T00:38:21Z</time>
      </trkpt>
      <trkpt lat="31.74150000" lon="35.11974000">
        <ele>546.00000</ele>
        <time>2010-01-01T00:38:53Z</time>
      </trkpt>
      <trkpt lat="31.74190000" lon="35.11993000">
        <ele>545.00000</ele>
        <time>2010-01-01T00:39:10Z</time>
      </trkpt>
      <trkpt lat="31.74215000" lon="35.12009000">
        <ele>544.00000</ele>
        <time>2010-01-01T00:39:22Z</time>
      </trkpt>
      <trkpt lat="31.74240000" lon="35.12018000">
        <ele>546.00000</ele>
        <time>2010-01-01T00:39:32Z</time>
      </trkpt>
      <trkpt lat="31.74290000" lon="35.12032000">
        <ele>551.00000</ele>
        <time>2010-01-01T00:39:53Z</time>
      </trkpt>
      <trkpt lat="31.74298000" lon="35.12037000">
        <ele>552.00000</ele>
        <time>2010-01-01T00:39:56Z</time>
      </trkpt>
      <trkpt lat="31.74356000" lon="35.12104000">
        <ele>556.00000</ele>
        <time>2010-01-01T00:40:29Z</time>
      </trkpt>
      <trkpt lat="31.74378000" lon="35.12127000">
        <ele>559.00000</ele>
        <time>2010-01-01T00:40:41Z</time>
      </trkpt>
      <trkpt lat="31.74418000" lon="35.12164000">
        <ele>565.00000</ele>
        <time>2010-01-01T00:41:01Z</time>
      </trkpt>
      <trkpt lat="31.74418000" lon="35.12163000">
        <ele>565.00000</ele>
        <time>2010-01-01T00:41:01Z</time>
      </trkpt>
      <trkpt lat="31.74430000" lon="35.12174000">
        <ele>566.00000</ele>
        <time>2010-01-01T00:41:08Z</time>
      </trkpt>
      <trkpt lat="31.74483000" lon="35.12216000">
        <ele>572.00000</ele>
        <time>2010-01-01T00:41:33Z</time>
      </trkpt>
      <trkpt lat="31.74494000" lon="35.12228000">
        <ele>574.00000</ele>
        <time>2010-01-01T00:41:39Z</time>
      </trkpt>
      <trkpt lat="31.74498000" lon="35.12240000">
        <ele>573.00000</ele>
        <time>2010-01-01T00:41:44Z</time>
      </trkpt>
      <trkpt lat="31.74500000" lon="35.12271000">
        <ele>573.00000</ele>
        <time>2010-01-01T00:41:54Z</time>
      </trkpt>
      <trkpt lat="31.74504000" lon="35.12294000">
        <ele>576.00000</ele>
        <time>2010-01-01T00:42:02Z</time>
      </trkpt>
      <trkpt lat="31.74510000" lon="35.12312000">
        <ele>578.00000</ele>
        <time>2010-01-01T00:42:09Z</time>
      </trkpt>
      <trkpt lat="31.74538000" lon="35.12380000">
        <ele>583.00000</ele>
        <time>2010-01-01T00:42:34Z</time>
      </trkpt>
      <trkpt lat="31.74556000" lon="35.12446000">
        <ele>582.00000</ele>
        <time>2010-01-01T00:42:58Z</time>
      </trkpt>
      <trkpt lat="31.74569000" lon="35.12483000">
        <ele>585.00000</ele>
        <time>2010-01-01T00:43:12Z</time>
      </trkpt>
      <trkpt lat="31.74580000" lon="35.12522000">
        <ele>587.00000</ele>
        <time>2010-01-01T00:43:26Z</time>
      </trkpt>
      <trkpt lat="31.74586000" lon="35.12535000">
        <ele>588.00000</ele>
        <time>2010-01-01T00:43:31Z</time>
      </trkpt>
      <trkpt lat="31.74600000" lon="35.12552000">
        <ele>592.00000</ele>
        <time>2010-01-01T00:43:39Z</time>
      </trkpt>
      <trkpt lat="31.74608000" lon="35.12567000">
        <ele>596.00000</ele>
        <time>2010-01-01T00:43:45Z</time>
      </trkpt>
      <trkpt lat="31.74608000" lon="35.12576000">
        <ele>595.00000</ele>
        <time>2010-01-01T00:43:48Z</time>
      </trkpt>
      <trkpt lat="31.74597000" lon="35.12633000">
        <ele>596.00000</ele>
        <time>2010-01-01T00:44:08Z</time>
      </trkpt>
      <trkpt lat="31.74598000" lon="35.12649000">
        <ele>596.00000</ele>
        <time>2010-01-01T00:44:13Z</time>
      </trkpt>
      <trkpt lat="31.74601000" lon="35.12660000">
        <ele>595.00000</ele>
        <time>2010-01-01T00:44:17Z</time>
      </trkpt>
      <trkpt lat="31.74607000" lon="35.12671000">
        <ele>596.00000</ele>
        <time>2010-01-01T00:44:22Z</time>
      </trkpt>
      <trkpt lat="31.74614000" lon="35.12680000">
        <ele>596.00000</ele>
        <time>2010-01-01T00:44:26Z</time>
      </trkpt>
      <trkpt lat="31.74626000" lon="35.12691000">
        <ele>596.00000</ele>
        <time>2010-01-01T00:44:32Z</time>
      </trkpt>
      <trkpt lat="31.74652000" lon="35.12707000">
        <ele>599.00000</ele>
        <time>2010-01-01T00:44:44Z</time>
      </trkpt>
      <trkpt lat="31.74692000" lon="35.12737000">
        <ele>608.00000</ele>
        <time>2010-01-01T00:45:03Z</time>
      </trkpt>
      <trkpt lat="31.74717000" lon="35.12752000">
        <ele>613.00000</ele>
        <time>2010-01-01T00:45:14Z</time>
      </trkpt>
      <trkpt lat="31.74727000" lon="35.12762000">
        <ele>615.00000</ele>
        <time>2010-01-01T00:45:19Z</time>
      </trkpt>
      <trkpt lat="31.74735000" lon="35.12777000">
        <ele>614.00000</ele>
        <time>2010-01-01T00:45:25Z</time>
      </trkpt>
      <trkpt lat="31.74730000" lon="35.12793000">
        <ele>612.00000</ele>
        <time>2010-01-01T00:45:31Z</time>
      </trkpt>
      <trkpt lat="31.74722000" lon="35.12807000">
        <ele>608.00000</ele>
        <time>2010-01-01T00:45:37Z</time>
      </trkpt>
      <trkpt lat="31.74719000" lon="35.12823000">
        <ele>608.00000</ele>
        <time>2010-01-01T00:45:42Z</time>
      </trkpt>
      <trkpt lat="31.74717000" lon="35.12849000">
        <ele>613.00000</ele>
        <time>2010-01-01T00:45:51Z</time>
      </trkpt>
      <trkpt lat="31.74720000" lon="35.12891000">
        <ele>623.00000</ele>
        <time>2010-01-01T00:46:05Z</time>
      </trkpt>
      <trkpt lat="31.74719000" lon="35.12908000">
        <ele>628.00000</ele>
        <time>2010-01-01T00:46:11Z</time>
      </trkpt>
      <trkpt lat="31.74715000" lon="35.12920000">
        <ele>630.00000</ele>
        <time>2010-01-01T00:46:16Z</time>
      </trkpt>
      <trkpt lat="31.74707000" lon="35.12928000">
        <ele>630.00000</ele>
        <time>2010-01-01T00:46:20Z</time>
      </trkpt>
      <trkpt lat="31.74701000" lon="35.12932000">
        <ele>629.00000</ele>
        <time>2010-01-01T00:46:23Z</time>
      </trkpt>
      <trkpt lat="31.74672000" lon="35.12935000">
        <ele>626.00000</ele>
        <time>2010-01-01T00:46:34Z</time>
      </trkpt>
      <trkpt lat="31.74644000" lon="35.12943000">
        <ele>625.00000</ele>
        <time>2010-01-01T00:46:46Z</time>
      </trkpt>
      <trkpt lat="31.74579000" lon="35.12979000">
        <ele>634.00000</ele>
        <time>2010-01-01T00:47:15Z</time>
      </trkpt>
      <trkpt lat="31.74554000" lon="35.12983000">
        <ele>634.00000</ele>
        <time>2010-01-01T00:47:25Z</time>
      </trkpt>
      <trkpt lat="31.74540000" lon="35.12982000">
        <ele>634.00000</ele>
        <time>2010-01-01T00:47:30Z</time>
      </trkpt>
      <trkpt lat="31.74522000" lon="35.12984000">
        <ele>635.00000</ele>
        <time>2010-01-01T00:47:37Z</time>
      </trkpt>
      <trkpt lat="31.74497000" lon="35.12991000">
        <ele>639.00000</ele>
        <time>2010-01-01T00:47:48Z</time>
      </trkpt>
      <trkpt lat="31.74473000" lon="35.13001000">
        <ele>643.00000</ele>
        <time>2010-01-01T00:47:58Z</time>
      </trkpt>
      <trkpt lat="31.74441000" lon="35.13018000">
        <ele>644.00000</ele>
        <time>2010-01-01T00:48:12Z</time>
      </trkpt>
      <trkpt lat="31.74414000" lon="35.13032000">
        <ele>643.00000</ele>
        <time>2010-01-01T00:48:24Z</time>
      </trkpt>
      <trkpt lat="31.74391000" lon="35.13052000">
        <ele>645.00000</ele>
        <time>2010-01-01T00:48:35Z</time>
      </trkpt>
      <trkpt lat="31.74374000" lon="35.13074000">
        <ele>648.00000</ele>
        <time>2010-01-01T00:48:45Z</time>
      </trkpt>
      <trkpt lat="31.74361000" lon="35.13095000">
        <ele>649.00000</ele>
        <time>2010-01-01T00:48:54Z</time>
      </trkpt>
      <trkpt lat="31.74353000" lon="35.13114000">
        <ele>649.00000</ele>
        <time>2010-01-01T00:49:01Z</time>
      </trkpt>
      <trkpt lat="31.74347000" lon="35.13134000">
        <ele>649.00000</ele>
        <time>2010-01-01T00:49:09Z</time>
      </trkpt>
      <trkpt lat="31.74341000" lon="35.13176000">
        <ele>653.00000</ele>
        <time>2010-01-01T00:49:23Z</time>
      </trkpt>
      <trkpt lat="31.74339000" lon="35.13201000">
        <ele>655.00000</ele>
        <time>2010-01-01T00:49:32Z</time>
      </trkpt>
      <trkpt lat="31.74340000" lon="35.13248000">
        <ele>658.00000</ele>
        <time>2010-01-01T00:49:48Z</time>
      </trkpt>
      <trkpt lat="31.74344000" lon="35.13277000">
        <ele>661.00000</ele>
        <time>2010-01-01T00:49:58Z</time>
      </trkpt>
      <trkpt lat="31.74352000" lon="35.13306000">
        <ele>666.00000</ele>
        <time>2010-01-01T00:50:08Z</time>
      </trkpt>
      <trkpt lat="31.74354000" lon="35.13318000">
        <ele>669.00000</ele>
        <time>2010-01-01T00:50:12Z</time>
      </trkpt>
      <trkpt lat="31.74350000" lon="35.13330000">
        <ele>670.00000</ele>
        <time>2010-01-01T00:50:17Z</time>
      </trkpt>
      <trkpt lat="31.74344000" lon="35.13335000">
        <ele>671.00000</ele>
        <time>2010-01-01T00:50:20Z</time>
      </trkpt>
      <trkpt lat="31.74337000" lon="35.13338000">
        <ele>671.00000</ele>
        <time>2010-01-01T00:50:23Z</time>
      </trkpt>
      <trkpt lat="31.74251000" lon="35.13336000">
        <ele>671.00000</ele>
        <time>2010-01-01T00:50:57Z</time>
      </trkpt>
      <trkpt lat="31.74208000" lon="35.13332000">
        <ele>675.00000</ele>
        <time>2010-01-01T00:51:14Z</time>
      </trkpt>
      <trkpt lat="31.74169000" lon="35.13323000">
        <ele>684.00000</ele>
        <time>2010-01-01T00:51:30Z</time>
      </trkpt>
      <trkpt lat="31.74135000" lon="35.13309000">
        <ele>688.00000</ele>
        <time>2010-01-01T00:51:45Z</time>
      </trkpt>
      <trkpt lat="31.74116000" lon="35.13297000">
        <ele>688.00000</ele>
        <time>2010-01-01T00:51:53Z</time>
      </trkpt>
      <trkpt lat="31.74028000" lon="35.13229000">
        <ele>683.00000</ele>
        <time>2010-01-01T00:52:35Z</time>
      </trkpt>
      <trkpt lat="31.74018000" lon="35.13225000">
        <ele>683.00000</ele>
        <time>2010-01-01T00:52:40Z</time>
      </trkpt>
      <trkpt lat="31.74003000" lon="35.13225000">
        <ele>684.00000</ele>
        <time>2010-01-01T00:52:46Z</time>
      </trkpt>
      <trkpt lat="31.73980000" lon="35.13207000">
        <ele>681.00000</ele>
        <time>2010-01-01T00:52:57Z</time>
      </trkpt>
      <trkpt lat="31.73953000" lon="35.13192000">
        <ele>677.00000</ele>
        <time>2010-01-01T00:53:09Z</time>
      </trkpt>
      <trkpt lat="31.73940000" lon="35.13187000">
        <ele>675.00000</ele>
        <time>2010-01-01T00:53:14Z</time>
      </trkpt>
      <trkpt lat="31.73929000" lon="35.13186000">
        <ele>674.00000</ele>
        <time>2010-01-01T00:53:19Z</time>
      </trkpt>
      <trkpt lat="31.73910000" lon="35.13190000">
        <ele>673.00000</ele>
        <time>2010-01-01T00:53:26Z</time>
      </trkpt>
      <trkpt lat="31.73898000" lon="35.13196000">
        <ele>674.00000</ele>
        <time>2010-01-01T00:53:31Z</time>
      </trkpt>
      <trkpt lat="31.73885000" lon="35.13206000">
        <ele>674.00000</ele>
        <time>2010-01-01T00:53:38Z</time>
      </trkpt>
      <trkpt lat="31.73866000" lon="35.13223000">
        <ele>671.00000</ele>
        <time>2010-01-01T00:53:47Z</time>
      </trkpt>
      <trkpt lat="31.73855000" lon="35.13237000">
        <ele>669.00000</ele>
        <time>2010-01-01T00:53:54Z</time>
      </trkpt>
      <trkpt lat="31.73848000" lon="35.13253000">
        <ele>667.00000</ele>
        <time>2010-01-01T00:54:00Z</time>
      </trkpt>
      <trkpt lat="31.73842000" lon="35.13282000">
        <ele>667.00000</ele>
        <time>2010-01-01T00:54:10Z</time>
      </trkpt>
      <trkpt lat="31.73838000" lon="35.13320000">
        <ele>668.00000</ele>
        <time>2010-01-01T00:54:23Z</time>
      </trkpt>
      <trkpt lat="31.73840000" lon="35.13361000">
        <ele>663.00000</ele>
        <time>2010-01-01T00:54:37Z</time>
      </trkpt>
      <trkpt lat="31.73840000" lon="35.13413000">
        <ele>658.00000</ele>
        <time>2010-01-01T00:54:55Z</time>
      </trkpt>
      <trkpt lat="31.73838000" lon="35.13455000">
        <ele>656.00000</ele>
        <time>2010-01-01T00:55:09Z</time>
      </trkpt>
      <trkpt lat="31.73841000" lon="35.13528000">
        <ele>653.00000</ele>
        <time>2010-01-01T00:55:34Z</time>
      </trkpt>
      <trkpt lat="31.73838000" lon="35.13571000">
        <ele>653.00000</ele>
        <time>2010-01-01T00:55:49Z</time>
      </trkpt>
      <trkpt lat="31.73832000" lon="35.13614000">
        <ele>652.00000</ele>
        <time>2010-01-01T00:56:03Z</time>
      </trkpt>
      <trkpt lat="31.73811000" lon="35.13678000">
        <ele>641.00000</ele>
        <time>2010-01-01T00:56:27Z</time>
      </trkpt>
      <trkpt lat="31.73807000" lon="35.13701000">
        <ele>641.00000</ele>
        <time>2010-01-01T00:56:35Z</time>
      </trkpt>
      <trkpt lat="31.73791000" lon="35.13760000">
        <ele>637.00000</ele>
        <time>2010-01-01T00:56:56Z</time>
      </trkpt>
      <trkpt lat="31.73789000" lon="35.13775000">
        <ele>636.00000</ele>
        <time>2010-01-01T00:57:01Z</time>
      </trkpt>
      <trkpt lat="31.73789000" lon="35.13790000">
        <ele>636.00000</ele>
        <time>2010-01-01T00:57:06Z</time>
      </trkpt>
      <trkpt lat="31.73792000" lon="35.13810000">
        <ele>636.00000</ele>
        <time>2010-01-01T00:57:13Z</time>
      </trkpt>
      <trkpt lat="31.73798000" lon="35.13832000">
        <ele>636.00000</ele>
        <time>2010-01-01T00:57:21Z</time>
      </trkpt>
      <trkpt lat="31.73811000" lon="35.13857000">
        <ele>638.00000</ele>
        <time>2010-01-01T00:57:31Z</time>
      </trkpt>
      <trkpt lat="31.73813000" lon="35.13865000">
        <ele>639.00000</ele>
        <time>2010-01-01T00:57:34Z</time>
      </trkpt>
      <trkpt lat="31.73809000" lon="35.13877000">
        <ele>638.00000</ele>
        <time>2010-01-01T00:57:38Z</time>
      </trkpt>
      <trkpt lat="31.73802000" lon="35.13881000">
        <ele>637.00000</ele>
        <time>2010-01-01T00:57:41Z</time>
      </trkpt>
      <trkpt lat="31.73796000" lon="35.13882000">
        <ele>635.00000</ele>
        <time>2010-01-01T00:57:44Z</time>
      </trkpt>
      <trkpt lat="31.73773000" lon="35.13879000">
        <ele>629.00000</ele>
        <time>2010-01-01T00:57:53Z</time>
      </trkpt>
      <trkpt lat="31.73711000" lon="35.13887000">
        <ele>625.00000</ele>
        <time>2010-01-01T00:58:18Z</time>
      </trkpt>
      <trkpt lat="31.73664000" lon="35.13887000">
        <ele>620.00000</ele>
        <time>2010-01-01T00:58:37Z</time>
      </trkpt>
      <trkpt lat="31.73649000" lon="35.13889000">
        <ele>618.00000</ele>
        <time>2010-01-01T00:58:43Z</time>
      </trkpt>
      <trkpt lat="31.73597000" lon="35.13902000">
        <ele>612.00000</ele>
        <time>2010-01-01T00:59:04Z</time>
      </trkpt>
      <trkpt lat="31.73561000" lon="35.13906000">
        <ele>607.00000</ele>
        <time>2010-01-01T00:59:19Z</time>
      </trkpt>
      <trkpt lat="31.73490000" lon="35.13909000">
        <ele>601.00000</ele>
        <time>2010-01-01T00:59:47Z</time>
      </trkpt>
      <trkpt lat="31.73463000" lon="35.13913000">
        <ele>599.00000</ele>
        <time>2010-01-01T00:59:58Z</time>
      </trkpt>
      <trkpt lat="31.73445000" lon="35.13922000">
        <ele>601.00000</ele>
        <time>2010-01-01T01:00:06Z</time>
      </trkpt>
      <trkpt lat="31.73372000" lon="35.13946000">
        <ele>601.00000</ele>
        <time>2010-01-01T01:00:36Z</time>
      </trkpt>
      <trkpt lat="31.73355000" lon="35.13944000">
        <ele>598.00000</ele>
        <time>2010-01-01T01:00:43Z</time>
      </trkpt>
      <trkpt lat="31.73332000" lon="35.13949000">
        <ele>597.00000</ele>
        <time>2010-01-01T01:00:52Z</time>
      </trkpt>
      <trkpt lat="31.73310000" lon="35.13958000">
        <ele>597.00000</ele>
        <time>2010-01-01T01:01:02Z</time>
      </trkpt>
      <trkpt lat="31.73299000" lon="35.13967000">
        <ele>598.00000</ele>
        <time>2010-01-01T01:01:07Z</time>
      </trkpt>
      <trkpt lat="31.73300000" lon="35.13980000">
        <ele>600.00000</ele>
        <time>2010-01-01T01:01:11Z</time>
      </trkpt>
      <trkpt lat="31.73310000" lon="35.13993000">
        <ele>604.00000</ele>
        <time>2010-01-01T01:01:17Z</time>
      </trkpt>
      <trkpt lat="31.73322000" lon="35.14016000">
        <ele>606.00000</ele>
        <time>2010-01-01T01:01:27Z</time>
      </trkpt>
      <trkpt lat="31.73344000" lon="35.14049000">
        <ele>609.00000</ele>
        <time>2010-01-01T01:01:41Z</time>
      </trkpt>
      <trkpt lat="31.73360000" lon="35.14089000">
        <ele>604.00000</ele>
        <time>2010-01-01T01:01:56Z</time>
      </trkpt>
      <trkpt lat="31.73375000" lon="35.14112000">
        <ele>603.00000</ele>
        <time>2010-01-01T01:02:06Z</time>
      </trkpt>
      <trkpt lat="31.73402000" lon="35.14174000">
        <ele>602.00000</ele>
        <time>2010-01-01T01:02:29Z</time>
      </trkpt>
      <trkpt lat="31.73414000" lon="35.14226000">
        <ele>599.00000</ele>
        <time>2010-01-01T01:02:48Z</time>
      </trkpt>
      <trkpt lat="31.73424000" lon="35.14256000">
        <ele>599.00000</ele>
        <time>2010-01-01T01:02:59Z</time>
      </trkpt>
      <trkpt lat="31.73435000" lon="35.14279000">
        <ele>603.00000</ele>
        <time>2010-01-01T01:03:08Z</time>
      </trkpt>
      <trkpt lat="31.73457000" lon="35.14406000">
        <ele>603.00000</ele>
        <time>2010-01-01T01:03:52Z</time>
      </trkpt>
      <trkpt lat="31.73468000" lon="35.14435000">
        <ele>601.00000</ele>
        <time>2010-01-01T01:04:03Z</time>
      </trkpt>
      <trkpt lat="31.73467000" lon="35.14458000">
        <ele>594.00000</ele>
        <time>2010-01-01T01:04:11Z</time>
      </trkpt>
      <trkpt lat="31.73474000" lon="35.14471000">
        <ele>593.00000</ele>
        <time>2010-01-01T01:04:16Z</time>
      </trkpt>
      <trkpt lat="31.73495000" lon="35.14489000">
        <ele>596.00000</ele>
        <time>2010-01-01T01:04:26Z</time>
      </trkpt>
      <trkpt lat="31.73531000" lon="35.14510000">
        <ele>603.00000</ele>
        <time>2010-01-01T01:04:42Z</time>
      </trkpt>
      <trkpt lat="31.73548000" lon="35.14524000">
        <ele>604.00000</ele>
        <time>2010-01-01T01:04:51Z</time>
      </trkpt>
      <trkpt lat="31.73556000" lon="35.14535000">
        <ele>603.00000</ele>
        <time>2010-01-01T01:04:55Z</time>
      </trkpt>
      <trkpt lat="31.73585000" lon="35.14579000">
        <ele>603.00000</ele>
        <time>2010-01-01T01:05:14Z</time>
      </trkpt>
      <trkpt lat="31.73590000" lon="35.14589000">
        <ele>603.00000</ele>
        <time>2010-01-01T01:05:18Z</time>
      </trkpt>
      <trkpt lat="31.73600000" lon="35.14619000">
        <ele>601.00000</ele>
        <time>2010-01-01T01:05:29Z</time>
      </trkpt>
      <trkpt lat="31.73606000" lon="35.14644000">
        <ele>599.00000</ele>
        <time>2010-01-01T01:05:38Z</time>
      </trkpt>
      <trkpt lat="31.73612000" lon="35.14659000">
        <ele>597.00000</ele>
        <time>2010-01-01T01:05:44Z</time>
      </trkpt>
      <trkpt lat="31.73628000" lon="35.14678000">
        <ele>596.00000</ele>
        <time>2010-01-01T01:05:53Z</time>
      </trkpt>
      <trkpt lat="31.73638000" lon="35.14685000">
        <ele>596.00000</ele>
        <time>2010-01-01T01:05:58Z</time>
      </trkpt>
      <trkpt lat="31.73695000" lon="35.14706000">
        <ele>598.00000</ele>
        <time>2010-01-01T01:06:22Z</time>
      </trkpt>
      <trkpt lat="31.73737000" lon="35.14731000">
        <ele>600.00000</ele>
        <time>2010-01-01T01:06:40Z</time>
      </trkpt>
      <trkpt lat="31.73749000" lon="35.14740000">
        <ele>601.00000</ele>
        <time>2010-01-01T01:06:46Z</time>
      </trkpt>
      <trkpt lat="31.73756000" lon="35.14750000">
        <ele>601.00000</ele>
        <time>2010-01-01T01:06:50Z</time>
      </trkpt>
      <trkpt lat="31.73775000" lon="35.14786000">
        <ele>598.00000</ele>
        <time>2010-01-01T01:07:05Z</time>
      </trkpt>
      <trkpt lat="31.73775000" lon="35.14785000">
        <ele>599.00000</ele>
        <time>2010-01-01T01:07:05Z</time>
      </trkpt>
      <trkpt lat="31.73796000" lon="35.14833000">
        <ele>596.00000</ele>
        <time>2010-01-01T01:07:24Z</time>
      </trkpt>
      <trkpt lat="31.73820000" lon="35.14869000">
        <ele>598.00000</ele>
        <time>2010-01-01T01:07:39Z</time>
      </trkpt>
      <trkpt lat="31.73834000" lon="35.14894000">
        <ele>600.00000</ele>
        <time>2010-01-01T01:07:49Z</time>
      </trkpt>
      <trkpt lat="31.73837000" lon="35.14904000">
        <ele>601.00000</ele>
        <time>2010-01-01T01:07:53Z</time>
      </trkpt>
      <trkpt lat="31.73837000" lon="35.14914000">
        <ele>601.00000</ele>
        <time>2010-01-01T01:07:56Z</time>
      </trkpt>
      <trkpt lat="31.73832000" lon="35.14938000">
        <ele>602.00000</ele>
        <time>2010-01-01T01:08:05Z</time>
      </trkpt>
      <trkpt lat="31.73832000" lon="35.14959000">
        <ele>603.00000</ele>
        <time>2010-01-01T01:08:12Z</time>
      </trkpt>
      <trkpt lat="31.73856000" lon="35.15019000">
        <ele>608.00000</ele>
        <time>2010-01-01T01:08:35Z</time>
      </trkpt>
      <trkpt lat="31.73871000" lon="35.15043000">
        <ele>610.00000</ele>
        <time>2010-01-01T01:08:45Z</time>
      </trkpt>
      <trkpt lat="31.73884000" lon="35.15053000">
        <ele>611.00000</ele>
        <time>2010-01-01T01:08:51Z</time>
      </trkpt>
      <trkpt lat="31.73912000" lon="35.15063000">
        <ele>617.00000</ele>
        <time>2010-01-01T01:09:03Z</time>
      </trkpt>
      <trkpt lat="31.73950000" lon="35.15087000">
        <ele>621.00000</ele>
        <time>2010-01-01T01:09:20Z</time>
      </trkpt>
      <trkpt lat="31.73955000" lon="35.15093000">
        <ele>621.00000</ele>
        <time>2010-01-01T01:09:23Z</time>
      </trkpt>
      <trkpt lat="31.73960000" lon="35.15103000">
        <ele>621.00000</ele>
        <time>2010-01-01T01:09:27Z</time>
      </trkpt>
      <trkpt lat="31.73977000" lon="35.15142000">
        <ele>619.00000</ele>
        <time>2010-01-01T01:09:42Z</time>
      </trkpt>
      <trkpt lat="31.73985000" lon="35.15156000">
        <ele>620.00000</ele>
        <time>2010-01-01T01:09:47Z</time>
      </trkpt>
      <trkpt lat="31.73991000" lon="35.15163000">
        <ele>620.00000</ele>
        <time>2010-01-01T01:09:51Z</time>
      </trkpt>
      <trkpt lat="31.74004000" lon="35.15170000">
        <ele>622.00000</ele>
        <time>2010-01-01T01:09:56Z</time>
      </trkpt>
      <trkpt lat="31.74020000" lon="35.15184000">
        <ele>624.00000</ele>
        <time>2010-01-01T01:10:04Z</time>
      </trkpt>
      <trkpt lat="31.74050000" lon="35.15220000">
        <ele>624.00000</ele>
        <time>2010-01-01T01:10:22Z</time>
      </trkpt>
      <trkpt lat="31.74056000" lon="35.15224000">
        <ele>624.00000</ele>
        <time>2010-01-01T01:10:24Z</time>
      </trkpt>
      <trkpt lat="31.74063000" lon="35.15225000">
        <ele>625.00000</ele>
        <time>2010-01-01T01:10:27Z</time>
      </trkpt>
      <trkpt lat="31.74075000" lon="35.15222000">
        <ele>628.00000</ele>
        <time>2010-01-01T01:10:32Z</time>
      </trkpt>
      <trkpt lat="31.74086000" lon="35.15224000">
        <ele>630.00000</ele>
        <time>2010-01-01T01:10:37Z</time>
      </trkpt>
      <trkpt lat="31.74095000" lon="35.15228000">
        <ele>632.00000</ele>
        <time>2010-01-01T01:10:40Z</time>
      </trkpt>
      <trkpt lat="31.74148000" lon="35.15277000">
        <ele>628.00000</ele>
        <time>2010-01-01T01:11:07Z</time>
      </trkpt>
      <trkpt lat="31.74154000" lon="35.15281000">
        <ele>627.00000</ele>
        <time>2010-01-01T01:11:10Z</time>
      </trkpt>
      <trkpt lat="31.74166000" lon="35.15284000">
        <ele>627.00000</ele>
        <time>2010-01-01T01:11:15Z</time>
      </trkpt>
      <trkpt lat="31.74201000" lon="35.15285000">
        <ele>630.00000</ele>
        <time>2010-01-01T01:11:29Z</time>
      </trkpt>
      <trkpt lat="31.74220000" lon="35.15290000">
        <ele>631.00000</ele>
        <time>2010-01-01T01:11:37Z</time>
      </trkpt>
      <trkpt lat="31.74234000" lon="35.15298000">
        <ele>631.00000</ele>
        <time>2010-01-01T01:11:43Z</time>
      </trkpt>
      <trkpt lat="31.74233000" lon="35.15298000">
        <ele>631.00000</ele>
        <time>2010-01-01T01:11:43Z</time>
      </trkpt>
      <trkpt lat="31.74252000" lon="35.15308000">
        <ele>631.00000</ele>
        <time>2010-01-01T01:11:52Z</time>
      </trkpt>
      <trkpt lat="31.74271000" lon="35.15312000">
        <ele>631.00000</ele>
        <time>2010-01-01T01:12:00Z</time>
      </trkpt>
      <trkpt lat="31.74303000" lon="35.15311000">
        <ele>633.00000</ele>
        <time>2010-01-01T01:12:12Z</time>
      </trkpt>
      <trkpt lat="31.74359000" lon="35.15320000">
        <ele>634.00000</ele>
        <time>2010-01-01T01:12:35Z</time>
      </trkpt>
      <trkpt lat="31.74375000" lon="35.15320000">
        <ele>634.00000</ele>
        <time>2010-01-01T01:12:41Z</time>
      </trkpt>
      <trkpt lat="31.74389000" lon="35.15317000">
        <ele>635.00000</ele>
        <time>2010-01-01T01:12:47Z</time>
      </trkpt>
      <trkpt lat="31.74419000" lon="35.15307000">
        <ele>640.00000</ele>
        <time>2010-01-01T01:13:00Z</time>
      </trkpt>
      <trkpt lat="31.74434000" lon="35.15305000">
        <ele>643.00000</ele>
        <time>2010-01-01T01:13:06Z</time>
      </trkpt>
      <trkpt lat="31.74443000" lon="35.15306000">
        <ele>643.00000</ele>
        <time>2010-01-01T01:13:09Z</time>
      </trkpt>
      <trkpt lat="31.74452000" lon="35.15311000">
        <ele>644.00000</ele>
        <time>2010-01-01T01:13:13Z</time>
      </trkpt>
      <trkpt lat="31.74455000" lon="35.15318000">
        <ele>643.00000</ele>
        <time>2010-01-01T01:13:16Z</time>
      </trkpt>
      <trkpt lat="31.74456000" lon="35.15323000">
        <ele>643.00000</ele>
        <time>2010-01-01T01:13:18Z</time>
      </trkpt>
      <trkpt lat="31.74454000" lon="35.15331000">
        <ele>641.00000</ele>
        <time>2010-01-01T01:13:20Z</time>
      </trkpt>
      <trkpt lat="31.74436000" lon="35.15372000">
        <ele>634.00000</ele>
        <time>2010-01-01T01:13:36Z</time>
      </trkpt>
      <trkpt lat="31.74432000" lon="35.15390000">
        <ele>634.00000</ele>
        <time>2010-01-01T01:13:43Z</time>
      </trkpt>
      <trkpt lat="31.74433000" lon="35.15415000">
        <ele>635.00000</ele>
        <time>2010-01-01T01:13:51Z</time>
      </trkpt>
      <trkpt lat="31.74437000" lon="35.15435000">
        <ele>636.00000</ele>
        <time>2010-01-01T01:13:58Z</time>
      </trkpt>
      <trkpt lat="31.74446000" lon="35.15455000">
        <ele>636.00000</ele>
        <time>2010-01-01T01:14:06Z</time>
      </trkpt>
      <trkpt lat="31.74460000" lon="35.15471000">
        <ele>637.00000</ele>
        <time>2010-01-01T01:14:14Z</time>
      </trkpt>
      <trkpt lat="31.74483000" lon="35.15492000">
        <ele>638.00000</ele>
        <time>2010-01-01T01:14:25Z</time>
      </trkpt>
      <trkpt lat="31.74508000" lon="35.15518000">
        <ele>638.00000</ele>
        <time>2010-01-01T01:14:39Z</time>
      </trkpt>
      <trkpt lat="31.74564000" lon="35.15577000">
        <ele>635.00000</ele>
        <time>2010-01-01T01:15:09Z</time>
      </trkpt>
      <trkpt lat="31.74576000" lon="35.15588000">
        <ele>636.00000</ele>
        <time>2010-01-01T01:15:15Z</time>
      </trkpt>
      <trkpt lat="31.74575000" lon="35.15588000">
        <ele>636.00000</ele>
        <time>2010-01-01T01:15:15Z</time>
      </trkpt>
      <trkpt lat="31.74602000" lon="35.15611000">
        <ele>636.00000</ele>
        <time>2010-01-01T01:15:28Z</time>
      </trkpt>
      <trkpt lat="31.74647000" lon="35.15644000">
        <ele>636.00000</ele>
        <time>2010-01-01T01:15:50Z</time>
      </trkpt>
      <trkpt lat="31.74658000" lon="35.15653000">
        <ele>637.00000</ele>
        <time>2010-01-01T01:15:55Z</time>
      </trkpt>
      <trkpt lat="31.74668000" lon="35.15667000">
        <ele>638.00000</ele>
        <time>2010-01-01T01:16:01Z</time>
      </trkpt>
      <trkpt lat="31.74687000" lon="35.15700000">
        <ele>637.00000</ele>
        <time>2010-01-01T01:16:15Z</time>
      </trkpt>
      <trkpt lat="31.74696000" lon="35.15711000">
        <ele>637.00000</ele>
        <time>2010-01-01T01:16:20Z</time>
      </trkpt>
      <trkpt lat="31.74733000" lon="35.15726000">
        <ele>639.00000</ele>
        <time>2010-01-01T01:16:36Z</time>
      </trkpt>
      <trkpt lat="31.74750000" lon="35.15731000">
        <ele>641.00000</ele>
        <time>2010-01-01T01:16:43Z</time>
      </trkpt>
      <trkpt lat="31.74756000" lon="35.15735000">
        <ele>642.00000</ele>
        <time>2010-01-01T01:16:46Z</time>
      </trkpt>
      <trkpt lat="31.74759000" lon="35.15740000">
        <ele>641.00000</ele>
        <time>2010-01-01T01:16:48Z</time>
      </trkpt>
      <trkpt lat="31.74758000" lon="35.15750000">
        <ele>640.00000</ele>
        <time>2010-01-01T01:16:51Z</time>
      </trkpt>
      <trkpt lat="31.74740000" lon="35.15777000">
        <ele>634.00000</ele>
        <time>2010-01-01T01:17:03Z</time>
      </trkpt>
      <trkpt lat="31.74734000" lon="35.15792000">
        <ele>634.00000</ele>
        <time>2010-01-01T01:17:08Z</time>
      </trkpt>
      <trkpt lat="31.74732000" lon="35.15811000">
        <ele>634.00000</ele>
        <time>2010-01-01T01:17:15Z</time>
      </trkpt>
      <trkpt lat="31.74732000" lon="35.15826000">
        <ele>634.00000</ele>
        <time>2010-01-01T01:17:20Z</time>
      </trkpt>
      <trkpt lat="31.74735000" lon="35.15837000">
        <ele>634.00000</ele>
        <time>2010-01-01T01:17:24Z</time>
      </trkpt>
      <trkpt lat="31.74761000" lon="35.15878000">
        <ele>635.00000</ele>
        <time>2010-01-01T01:17:41Z</time>
      </trkpt>
      <trkpt lat="31.74767000" lon="35.15884000">
        <ele>635.00000</ele>
        <time>2010-01-01T01:17:44Z</time>
      </trkpt>
      <trkpt lat="31.74795000" lon="35.15902000">
        <ele>640.00000</ele>
        <time>2010-01-01T01:17:57Z</time>
      </trkpt>
      <trkpt lat="31.74831000" lon="35.15931000">
        <ele>644.00000</ele>
        <time>2010-01-01T01:18:15Z</time>
      </trkpt>
      <trkpt lat="31.74843000" lon="35.15943000">
        <ele>645.00000</ele>
        <time>2010-01-01T01:18:21Z</time>
      </trkpt>
      <trkpt lat="31.74848000" lon="35.15953000">
        <ele>646.00000</ele>
        <time>2010-01-01T01:18:25Z</time>
      </trkpt>
      <trkpt lat="31.74846000" lon="35.15968000">
        <ele>645.00000</ele>
        <time>2010-01-01T01:18:30Z</time>
      </trkpt>
      <trkpt lat="31.74839000" lon="35.15980000">
        <ele>644.00000</ele>
        <time>2010-01-01T01:18:35Z</time>
      </trkpt>
      <trkpt lat="31.74829000" lon="35.15988000">
        <ele>643.00000</ele>
        <time>2010-01-01T01:18:40Z</time>
      </trkpt>
      <trkpt lat="31.74808000" lon="35.16003000">
        <ele>638.00000</ele>
        <time>2010-01-01T01:18:50Z</time>
      </trkpt>
      <trkpt lat="31.74798000" lon="35.16013000">
        <ele>638.00000</ele>
        <time>2010-01-01T01:18:55Z</time>
      </trkpt>
      <trkpt lat="31.74791000" lon="35.16024000">
        <ele>637.00000</ele>
        <time>2010-01-01T01:19:00Z</time>
      </trkpt>
      <trkpt lat="31.74784000" lon="35.16044000">
        <ele>638.00000</ele>
        <time>2010-01-01T01:19:07Z</time>
      </trkpt>
      <trkpt lat="31.74783000" lon="35.16059000">
        <ele>638.00000</ele>
        <time>2010-01-01T01:19:12Z</time>
      </trkpt>
      <trkpt lat="31.74784000" lon="35.16070000">
        <ele>638.00000</ele>
        <time>2010-01-01T01:19:16Z</time>
      </trkpt>
      <trkpt lat="31.74792000" lon="35.16085000">
        <ele>639.00000</ele>
        <time>2010-01-01T01:19:22Z</time>
      </trkpt>
      <trkpt lat="31.74824000" lon="35.16126000">
        <ele>644.00000</ele>
        <time>2010-01-01T01:19:41Z</time>
      </trkpt>
      <trkpt lat="31.74826000" lon="35.16134000">
        <ele>644.00000</ele>
        <time>2010-01-01T01:19:44Z</time>
      </trkpt>
      <trkpt lat="31.74823000" lon="35.16144000">
        <ele>643.00000</ele>
        <time>2010-01-01T01:19:47Z</time>
      </trkpt>
      <trkpt lat="31.74812000" lon="35.16150000">
        <ele>642.00000</ele>
        <time>2010-01-01T01:19:52Z</time>
      </trkpt>
      <trkpt lat="31.74792000" lon="35.16156000">
        <ele>640.00000</ele>
        <time>2010-01-01T01:20:00Z</time>
      </trkpt>
      <trkpt lat="31.74792000" lon="35.16157000">
        <ele>640.00000</ele>
        <time>2010-01-01T01:20:01Z</time>
      </trkpt>
      <trkpt lat="31.74757000" lon="35.16167000">
        <ele>639.00000</ele>
        <time>2010-01-01T01:20:15Z</time>
      </trkpt>
      <trkpt lat="31.74725000" lon="35.16182000">
        <ele>639.00000</ele>
        <time>2010-01-01T01:20:29Z</time>
      </trkpt>
      <trkpt lat="31.74716000" lon="35.16187000">
        <ele>638.00000</ele>
        <time>2010-01-01T01:20:33Z</time>
      </trkpt>
      <trkpt lat="31.74705000" lon="35.16197000">
        <ele>637.00000</ele>
        <time>2010-01-01T01:20:39Z</time>
      </trkpt>
      <trkpt lat="31.74670000" lon="35.16256000">
        <ele>639.00000</ele>
        <time>2010-01-01T01:21:03Z</time>
      </trkpt>
      <trkpt lat="31.74646000" lon="35.16311000">
        <ele>641.00000</ele>
        <time>2010-01-01T01:21:24Z</time>
      </trkpt>
      <trkpt lat="31.74635000" lon="35.16327000">
        <ele>641.00000</ele>
        <time>2010-01-01T01:21:31Z</time>
      </trkpt>
      <trkpt lat="31.74616000" lon="35.16349000">
        <ele>642.00000</ele>
        <time>2010-01-01T01:21:42Z</time>
      </trkpt>
      <trkpt lat="31.74602000" lon="35.16362000">
        <ele>642.00000</ele>
        <time>2010-01-01T01:21:49Z</time>
      </trkpt>
      <trkpt lat="31.74577000" lon="35.16373000">
        <ele>639.00000</ele>
        <time>2010-01-01T01:22:00Z</time>
      </trkpt>
      <trkpt lat="31.74569000" lon="35.16379000">
        <ele>639.00000</ele>
        <time>2010-01-01T01:22:03Z</time>
      </trkpt>
      <trkpt lat="31.74451000" lon="35.16497000">
        <ele>641.00000</ele>
        <time>2010-01-01T01:23:05Z</time>
      </trkpt>
      <trkpt lat="31.74433000" lon="35.16518000">
        <ele>641.00000</ele>
        <time>2010-01-01T01:23:16Z</time>
      </trkpt>
      <trkpt lat="31.74423000" lon="35.16534000">
        <ele>640.00000</ele>
        <time>2010-01-01T01:23:22Z</time>
      </trkpt>
      <trkpt lat="31.74414000" lon="35.16554000">
        <ele>639.00000</ele>
        <time>2010-01-01T01:23:30Z</time>
      </trkpt>
      <trkpt lat="31.74402000" lon="35.16580000">
        <ele>640.00000</ele>
        <time>2010-01-01T01:23:40Z</time>
      </trkpt>
      <trkpt lat="31.74395000" lon="35.16612000">
        <ele>644.00000</ele>
        <time>2010-01-01T01:23:51Z</time>
      </trkpt>
      <trkpt lat="31.74390000" lon="35.16663000">
        <ele>646.00000</ele>
        <time>2010-01-01T01:24:09Z</time>
      </trkpt>
      <trkpt lat="31.74388000" lon="35.16775000">
        <ele>645.00000</ele>
        <time>2010-01-01T01:24:47Z</time>
      </trkpt>
      <trkpt lat="31.74385000" lon="35.16817000">
        <ele>647.00000</ele>
        <time>2010-01-01T01:25:01Z</time>
      </trkpt>
      <trkpt lat="31.74367000" lon="35.16918000">
        <ele>649.00000</ele>
        <time>2010-01-01T01:25:36Z</time>
      </trkpt>
      <trkpt lat="31.74359000" lon="35.17015000">
        <ele>646.00000</ele>
        <time>2010-01-01T01:26:10Z</time>
      </trkpt>
      <trkpt lat="31.74360000" lon="35.17042000">
        <ele>647.00000</ele>
        <time>2010-01-01T01:26:19Z</time>
      </trkpt>
      <trkpt lat="31.74369000" lon="35.17091000">
        <ele>649.00000</ele>
        <time>2010-01-01T01:26:36Z</time>
      </trkpt>
      <trkpt lat="31.74372000" lon="35.17115000">
        <ele>649.00000</ele>
        <time>2010-01-01T01:26:44Z</time>
      </trkpt>
      <trkpt lat="31.74363000" lon="35.17224000">
        <ele>647.00000</ele>
        <time>2010-01-01T01:27:21Z</time>
      </trkpt>
      <trkpt lat="31.74356000" lon="35.17392000">
        <ele>651.00000</ele>
        <time>2010-01-01T01:28:19Z</time>
      </trkpt>
      <trkpt lat="31.74370000" lon="35.17461000">
        <ele>652.00000</ele>
        <time>2010-01-01T01:28:43Z</time>
      </trkpt>
      <trkpt lat="31.74374000" lon="35.17478000">
        <ele>651.00000</ele>
        <time>2010-01-01T01:28:49Z</time>
      </trkpt>
      <trkpt lat="31.74381000" lon="35.17493000">
        <ele>651.00000</ele>
        <time>2010-01-01T01:28:55Z</time>
      </trkpt>
      <trkpt lat="31.74403000" lon="35.17534000">
        <ele>650.00000</ele>
        <time>2010-01-01T01:29:11Z</time>
      </trkpt>
      <trkpt lat="31.74403000" lon="35.17533000">
        <ele>650.00000</ele>
        <time>2010-01-01T01:29:11Z</time>
      </trkpt>
      <trkpt lat="31.74417000" lon="35.17558000">
        <ele>648.00000</ele>
        <time>2010-01-01T01:29:22Z</time>
      </trkpt>
      <trkpt lat="31.74427000" lon="35.17572000">
        <ele>648.00000</ele>
        <time>2010-01-01T01:29:28Z</time>
      </trkpt>
      <trkpt lat="31.74452000" lon="35.17592000">
        <ele>649.00000</ele>
        <time>2010-01-01T01:29:40Z</time>
      </trkpt>
      <trkpt lat="31.74476000" lon="35.17621000">
        <ele>648.00000</ele>
        <time>2010-01-01T01:29:54Z</time>
      </trkpt>
      <trkpt lat="31.74500000" lon="35.17653000">
        <ele>650.00000</ele>
        <time>2010-01-01T01:30:08Z</time>
      </trkpt>
      <trkpt lat="31.74512000" lon="35.17685000">
        <ele>651.00000</ele>
        <time>2010-01-01T01:30:20Z</time>
      </trkpt>
      <trkpt lat="31.74515000" lon="35.17703000">
        <ele>651.00000</ele>
        <time>2010-01-01T01:30:26Z</time>
      </trkpt>
      <trkpt lat="31.74515000" lon="35.17716000">
        <ele>651.00000</ele>
        <time>2010-01-01T01:30:31Z</time>
      </trkpt>
      <trkpt lat="31.74512000" lon="35.17746000">
        <ele>651.00000</ele>
        <time>2010-01-01T01:30:41Z</time>
      </trkpt>
      <trkpt lat="31.74540000" lon="35.17742000">
        <ele>655.00000</ele>
        <time>2010-01-01T01:30:52Z</time>
      </trkpt>
      <trkpt lat="31.74548000" lon="35.17732000">
        <ele>655.00000</ele>
        <time>2010-01-01T01:30:57Z</time>
      </trkpt>
      <trkpt lat="31.74550000" lon="35.17734000">
        <ele>655.00000</ele>
        <time>2010-01-01T01:30:58Z</time>
      </trkpt>
      <trkpt lat="31.74559000" lon="35.17735000">
        <ele>656.00000</ele>
        <time>2010-01-01T01:31:02Z</time>
      </trkpt>
      <trkpt lat="31.74562000" lon="35.17733000">
        <ele>656.00000</ele>
        <time>2010-01-01T01:31:03Z</time>
      </trkpt>
      <trkpt lat="31.74577000" lon="35.17745000">
        <ele>658.00000</ele>
        <time>2010-01-01T01:31:10Z</time>
      </trkpt>
      <trkpt lat="31.74576000" lon="35.17745000">
        <ele>658.00000</ele>
        <time>2010-01-01T01:31:11Z</time>
      </trkpt>
      <trkpt lat="31.74562000" lon="35.17733000">
        <ele>656.00000</ele>
        <time>2010-01-01T01:31:18Z</time>
      </trkpt>
      <trkpt lat="31.74566000" lon="35.17727000">
        <ele>656.00000</ele>
        <time>2010-01-01T01:31:20Z</time>
      </trkpt>
      <trkpt lat="31.74566000" lon="35.17719000">
        <ele>655.00000</ele>
        <time>2010-01-01T01:31:23Z</time>
      </trkpt>
      <trkpt lat="31.74563000" lon="35.17712000">
        <ele>655.00000</ele>
        <time>2010-01-01T01:31:26Z</time>
      </trkpt>
      <trkpt lat="31.74556000" lon="35.17709000">
        <ele>655.00000</ele>
        <time>2010-01-01T01:31:29Z</time>
      </trkpt>
      <trkpt lat="31.74549000" lon="35.17711000">
        <ele>655.00000</ele>
        <time>2010-01-01T01:31:32Z</time>
      </trkpt>
      <trkpt lat="31.74545000" lon="35.17717000">
        <ele>654.00000</ele>
        <time>2010-01-01T01:31:34Z</time>
      </trkpt>
      <trkpt lat="31.74544000" lon="35.17725000">
        <ele>654.00000</ele>
        <time>2010-01-01T01:31:37Z</time>
      </trkpt>
      <trkpt lat="31.74548000" lon="35.17732000">
        <ele>655.00000</ele>
        <time>2010-01-01T01:31:40Z</time>
      </trkpt>
      <trkpt lat="31.74540000" lon="35.17742000">
        <ele>655.00000</ele>
        <time>2010-01-01T01:31:45Z</time>
      </trkpt>
      <trkpt lat="31.74512000" lon="35.17746000">
        <ele>651.00000</ele>
        <time>2010-01-01T01:31:56Z</time>
      </trkpt>
      <trkpt lat="31.74515000" lon="35.17716000">
        <ele>651.00000</ele>
        <time>2010-01-01T01:32:06Z</time>
      </trkpt>
      <trkpt lat="31.74515000" lon="35.17703000">
        <ele>651.00000</ele>
        <time>2010-01-01T01:32:11Z</time>
      </trkpt>
      <trkpt lat="31.74512000" lon="35.17685000">
        <ele>651.00000</ele>
        <time>2010-01-01T01:32:17Z</time>
      </trkpt>
      <trkpt lat="31.74500000" lon="35.17653000">
        <ele>650.00000</ele>
        <time>2010-01-01T01:32:29Z</time>
      </trkpt>
      <trkpt lat="31.74476000" lon="35.17621000">
        <ele>648.00000</ele>
        <time>2010-01-01T01:32:43Z</time>
      </trkpt>
      <trkpt lat="31.74452000" lon="35.17592000">
        <ele>649.00000</ele>
        <time>2010-01-01T01:32:57Z</time>
      </trkpt>
      <trkpt lat="31.74427000" lon="35.17572000">
        <ele>648.00000</ele>
        <time>2010-01-01T01:33:09Z</time>
      </trkpt>
      <trkpt lat="31.74417000" lon="35.17558000">
        <ele>648.00000</ele>
        <time>2010-01-01T01:33:15Z</time>
      </trkpt>
      <trkpt lat="31.74381000" lon="35.17493000">
        <ele>651.00000</ele>
        <time>2010-01-01T01:33:42Z</time>
      </trkpt>
      <trkpt lat="31.74374000" lon="35.17478000">
        <ele>651.00000</ele>
        <time>2010-01-01T01:33:48Z</time>
      </trkpt>
      <trkpt lat="31.74370000" lon="35.17461000">
        <ele>652.00000</ele>
        <time>2010-01-01T01:33:54Z</time>
      </trkpt>
      <trkpt lat="31.74356000" lon="35.17392000">
        <ele>651.00000</ele>
        <time>2010-01-01T01:34:18Z</time>
      </trkpt>
      <trkpt lat="31.74363000" lon="35.17224000">
        <ele>647.00000</ele>
        <time>2010-01-01T01:35:15Z</time>
      </trkpt>
      <trkpt lat="31.74372000" lon="35.17115000">
        <ele>649.00000</ele>
        <time>2010-01-01T01:35:52Z</time>
      </trkpt>
      <trkpt lat="31.74369000" lon="35.17091000">
        <ele>649.00000</ele>
        <time>2010-01-01T01:36:00Z</time>
      </trkpt>
      <trkpt lat="31.74360000" lon="35.17042000">
        <ele>647.00000</ele>
        <time>2010-01-01T01:36:18Z</time>
      </trkpt>
      <trkpt lat="31.74359000" lon="35.17015000">
        <ele>646.00000</ele>
        <time>2010-01-01T01:36:27Z</time>
      </trkpt>
      <trkpt lat="31.74367000" lon="35.16918000">
        <ele>649.00000</ele>
        <time>2010-01-01T01:37:00Z</time>
      </trkpt>
      <trkpt lat="31.74385000" lon="35.16817000">
        <ele>647.00000</ele>
        <time>2010-01-01T01:37:35Z</time>
      </trkpt>
      <trkpt lat="31.74388000" lon="35.16769000">
        <ele>645.00000</ele>
        <time>2010-01-01T01:37:51Z</time>
      </trkpt>
      <trkpt lat="31.74390000" lon="35.16663000">
        <ele>646.00000</ele>
        <time>2010-01-01T01:38:28Z</time>
      </trkpt>
      <trkpt lat="31.74395000" lon="35.16612000">
        <ele>644.00000</ele>
        <time>2010-01-01T01:38:45Z</time>
      </trkpt>
      <trkpt lat="31.74402000" lon="35.16580000">
        <ele>640.00000</ele>
        <time>2010-01-01T01:38:56Z</time>
      </trkpt>
      <trkpt lat="31.74423000" lon="35.16534000">
        <ele>640.00000</ele>
        <time>2010-01-01T01:39:14Z</time>
      </trkpt>
      <trkpt lat="31.74433000" lon="35.16518000">
        <ele>641.00000</ele>
        <time>2010-01-01T01:39:21Z</time>
      </trkpt>
      <trkpt lat="31.74451000" lon="35.16497000">
        <ele>641.00000</ele>
        <time>2010-01-01T01:39:31Z</time>
      </trkpt>
      <trkpt lat="31.74569000" lon="35.16379000">
        <ele>639.00000</ele>
        <time>2010-01-01T01:40:33Z</time>
      </trkpt>
      <trkpt lat="31.74577000" lon="35.16373000">
        <ele>639.00000</ele>
        <time>2010-01-01T01:40:37Z</time>
      </trkpt>
      <trkpt lat="31.74602000" lon="35.16362000">
        <ele>642.00000</ele>
        <time>2010-01-01T01:40:47Z</time>
      </trkpt>
      <trkpt lat="31.74616000" lon="35.16349000">
        <ele>642.00000</ele>
        <time>2010-01-01T01:40:55Z</time>
      </trkpt>
      <trkpt lat="31.74635000" lon="35.16327000">
        <ele>641.00000</ele>
        <time>2010-01-01T01:41:05Z</time>
      </trkpt>
      <trkpt lat="31.74646000" lon="35.16311000">
        <ele>641.00000</ele>
        <time>2010-01-01T01:41:12Z</time>
      </trkpt>
      <trkpt lat="31.74663000" lon="35.16271000">
        <ele>640.00000</ele>
        <time>2010-01-01T01:41:27Z</time>
      </trkpt>
      <trkpt lat="31.74670000" lon="35.16256000">
        <ele>639.00000</ele>
        <time>2010-01-01T01:41:33Z</time>
      </trkpt>
      <trkpt lat="31.74705000" lon="35.16197000">
        <ele>637.00000</ele>
        <time>2010-01-01T01:41:58Z</time>
      </trkpt>
      <trkpt lat="31.74716000" lon="35.16187000">
        <ele>638.00000</ele>
        <time>2010-01-01T01:42:03Z</time>
      </trkpt>
      <trkpt lat="31.74757000" lon="35.16167000">
        <ele>639.00000</ele>
        <time>2010-01-01T01:42:21Z</time>
      </trkpt>
      <trkpt lat="31.74812000" lon="35.16150000">
        <ele>642.00000</ele>
        <time>2010-01-01T01:42:44Z</time>
      </trkpt>
      <trkpt lat="31.74823000" lon="35.16144000">
        <ele>643.00000</ele>
        <time>2010-01-01T01:42:49Z</time>
      </trkpt>
      <trkpt lat="31.74826000" lon="35.16134000">
        <ele>644.00000</ele>
        <time>2010-01-01T01:42:52Z</time>
      </trkpt>
      <trkpt lat="31.74824000" lon="35.16126000">
        <ele>644.00000</ele>
        <time>2010-01-01T01:42:55Z</time>
      </trkpt>
      <trkpt lat="31.74792000" lon="35.16085000">
        <ele>639.00000</ele>
        <time>2010-01-01T01:43:14Z</time>
      </trkpt>
      <trkpt lat="31.74784000" lon="35.16070000">
        <ele>638.00000</ele>
        <time>2010-01-01T01:43:20Z</time>
      </trkpt>
      <trkpt lat="31.74783000" lon="35.16059000">
        <ele>638.00000</ele>
        <time>2010-01-01T01:43:24Z</time>
      </trkpt>
      <trkpt lat="31.74784000" lon="35.16044000">
        <ele>638.00000</ele>
        <time>2010-01-01T01:43:29Z</time>
      </trkpt>
      <trkpt lat="31.74791000" lon="35.16024000">
        <ele>637.00000</ele>
        <time>2010-01-01T01:43:36Z</time>
      </trkpt>
      <trkpt lat="31.74798000" lon="35.16013000">
        <ele>638.00000</ele>
        <time>2010-01-01T01:43:41Z</time>
      </trkpt>
      <trkpt lat="31.74808000" lon="35.16003000">
        <ele>638.00000</ele>
        <time>2010-01-01T01:43:46Z</time>
      </trkpt>
      <trkpt lat="31.74829000" lon="35.15988000">
        <ele>643.00000</ele>
        <time>2010-01-01T01:43:56Z</time>
      </trkpt>
      <trkpt lat="31.74839000" lon="35.15980000">
        <ele>644.00000</ele>
        <time>2010-01-01T01:44:01Z</time>
      </trkpt>
      <trkpt lat="31.74846000" lon="35.15968000">
        <ele>645.00000</ele>
        <time>2010-01-01T01:44:06Z</time>
      </trkpt>
      <trkpt lat="31.74848000" lon="35.15953000">
        <ele>646.00000</ele>
        <time>2010-01-01T01:44:11Z</time>
      </trkpt>
      <trkpt lat="31.74843000" lon="35.15943000">
        <ele>645.00000</ele>
        <time>2010-01-01T01:44:15Z</time>
      </trkpt>
      <trkpt lat="31.74831000" lon="35.15931000">
        <ele>644.00000</ele>
        <time>2010-01-01T01:44:21Z</time>
      </trkpt>
      <trkpt lat="31.74796000" lon="35.15902000">
        <ele>640.00000</ele>
        <time>2010-01-01T01:44:39Z</time>
      </trkpt>
      <trkpt lat="31.74795000" lon="35.15902000">
        <ele>640.00000</ele>
        <time>2010-01-01T01:44:39Z</time>
      </trkpt>
      <trkpt lat="31.74767000" lon="35.15884000">
        <ele>635.00000</ele>
        <time>2010-01-01T01:44:52Z</time>
      </trkpt>
      <trkpt lat="31.74761000" lon="35.15878000">
        <ele>635.00000</ele>
        <time>2010-01-01T01:44:55Z</time>
      </trkpt>
      <trkpt lat="31.74735000" lon="35.15837000">
        <ele>634.00000</ele>
        <time>2010-01-01T01:45:12Z</time>
      </trkpt>
      <trkpt lat="31.74732000" lon="35.15826000">
        <ele>634.00000</ele>
        <time>2010-01-01T01:45:16Z</time>
      </trkpt>
      <trkpt lat="31.74732000" lon="35.15811000">
        <ele>634.00000</ele>
        <time>2010-01-01T01:45:21Z</time>
      </trkpt>
      <trkpt lat="31.74734000" lon="35.15792000">
        <ele>634.00000</ele>
        <time>2010-01-01T01:45:28Z</time>
      </trkpt>
      <trkpt lat="31.74740000" lon="35.15777000">
        <ele>634.00000</ele>
        <time>2010-01-01T01:45:33Z</time>
      </trkpt>
      <trkpt lat="31.74758000" lon="35.15750000">
        <ele>640.00000</ele>
        <time>2010-01-01T01:45:45Z</time>
      </trkpt>
      <trkpt lat="31.74759000" lon="35.15740000">
        <ele>641.00000</ele>
        <time>2010-01-01T01:45:49Z</time>
      </trkpt>
      <trkpt lat="31.74756000" lon="35.15735000">
        <ele>642.00000</ele>
        <time>2010-01-01T01:45:51Z</time>
      </trkpt>
      <trkpt lat="31.74750000" lon="35.15731000">
        <ele>641.00000</ele>
        <time>2010-01-01T01:45:53Z</time>
      </trkpt>
      <trkpt lat="31.74733000" lon="35.15726000">
        <ele>639.00000</ele>
        <time>2010-01-01T01:46:00Z</time>
      </trkpt>
      <trkpt lat="31.74696000" lon="35.15711000">
        <ele>637.00000</ele>
        <time>2010-01-01T01:46:16Z</time>
      </trkpt>
      <trkpt lat="31.74687000" lon="35.15700000">
        <ele>637.00000</ele>
        <time>2010-01-01T01:46:21Z</time>
      </trkpt>
      <trkpt lat="31.74668000" lon="35.15667000">
        <ele>638.00000</ele>
        <time>2010-01-01T01:46:35Z</time>
      </trkpt>
      <trkpt lat="31.74658000" lon="35.15653000">
        <ele>637.00000</ele>
        <time>2010-01-01T01:46:41Z</time>
      </trkpt>
      <trkpt lat="31.74647000" lon="35.15644000">
        <ele>636.00000</ele>
        <time>2010-01-01T01:46:46Z</time>
      </trkpt>
      <trkpt lat="31.74602000" lon="35.15611000">
        <ele>636.00000</ele>
        <time>2010-01-01T01:47:08Z</time>
      </trkpt>
      <trkpt lat="31.74564000" lon="35.15577000">
        <ele>635.00000</ele>
        <time>2010-01-01T01:47:27Z</time>
      </trkpt>
      <trkpt lat="31.74512000" lon="35.15521000">
        <ele>638.00000</ele>
        <time>2010-01-01T01:47:55Z</time>
      </trkpt>
      <trkpt lat="31.74511000" lon="35.15521000">
        <ele>638.00000</ele>
        <time>2010-01-01T01:47:55Z</time>
      </trkpt>
      <trkpt lat="31.74483000" lon="35.15492000">
        <ele>638.00000</ele>
        <time>2010-01-01T01:48:10Z</time>
      </trkpt>
      <trkpt lat="31.74460000" lon="35.15471000">
        <ele>637.00000</ele>
        <time>2010-01-01T01:48:22Z</time>
      </trkpt>
      <trkpt lat="31.74446000" lon="35.15455000">
        <ele>636.00000</ele>
        <time>2010-01-01T01:48:30Z</time>
      </trkpt>
      <trkpt lat="31.74437000" lon="35.15435000">
        <ele>636.00000</ele>
        <time>2010-01-01T01:48:38Z</time>
      </trkpt>
      <trkpt lat="31.74433000" lon="35.15415000">
        <ele>635.00000</ele>
        <time>2010-01-01T01:48:45Z</time>
      </trkpt>
      <trkpt lat="31.74432000" lon="35.15390000">
        <ele>634.00000</ele>
        <time>2010-01-01T01:48:53Z</time>
      </trkpt>
      <trkpt lat="31.74436000" lon="35.15372000">
        <ele>634.00000</ele>
        <time>2010-01-01T01:48:59Z</time>
      </trkpt>
      <trkpt lat="31.74454000" lon="35.15331000">
        <ele>641.00000</ele>
        <time>2010-01-01T01:49:15Z</time>
      </trkpt>
      <trkpt lat="31.74456000" lon="35.15323000">
        <ele>643.00000</ele>
        <time>2010-01-01T01:49:18Z</time>
      </trkpt>
      <trkpt lat="31.74455000" lon="35.15318000">
        <ele>643.00000</ele>
        <time>2010-01-01T01:49:20Z</time>
      </trkpt>
      <trkpt lat="31.74452000" lon="35.15311000">
        <ele>644.00000</ele>
        <time>2010-01-01T01:49:22Z</time>
      </trkpt>
      <trkpt lat="31.74443000" lon="35.15306000">
        <ele>643.00000</ele>
        <time>2010-01-01T01:49:26Z</time>
      </trkpt>
      <trkpt lat="31.74434000" lon="35.15305000">
        <ele>643.00000</ele>
        <time>2010-01-01T01:49:30Z</time>
      </trkpt>
      <trkpt lat="31.74419000" lon="35.15307000">
        <ele>640.00000</ele>
        <time>2010-01-01T01:49:36Z</time>
      </trkpt>
      <trkpt lat="31.74389000" lon="35.15317000">
        <ele>635.00000</ele>
        <time>2010-01-01T01:49:48Z</time>
      </trkpt>
      <trkpt lat="31.74375000" lon="35.15320000">
        <ele>634.00000</ele>
        <time>2010-01-01T01:49:54Z</time>
      </trkpt>
      <trkpt lat="31.74359000" lon="35.15320000">
        <ele>634.00000</ele>
        <time>2010-01-01T01:50:01Z</time>
      </trkpt>
      <trkpt lat="31.74328000" lon="35.15315000">
        <ele>634.00000</ele>
        <time>2010-01-01T01:50:13Z</time>
      </trkpt>
      <trkpt lat="31.74327000" lon="35.15315000">
        <ele>634.00000</ele>
        <time>2010-01-01T01:50:13Z</time>
      </trkpt>
      <trkpt lat="31.74303000" lon="35.15311000">
        <ele>633.00000</ele>
        <time>2010-01-01T01:50:23Z</time>
      </trkpt>
      <trkpt lat="31.74271000" lon="35.15312000">
        <ele>631.00000</ele>
        <time>2010-01-01T01:50:36Z</time>
      </trkpt>
      <trkpt lat="31.74252000" lon="35.15308000">
        <ele>631.00000</ele>
        <time>2010-01-01T01:50:44Z</time>
      </trkpt>
      <trkpt lat="31.74220000" lon="35.15290000">
        <ele>631.00000</ele>
        <time>2010-01-01T01:50:58Z</time>
      </trkpt>
      <trkpt lat="31.74201000" lon="35.15285000">
        <ele>630.00000</ele>
        <time>2010-01-01T01:51:06Z</time>
      </trkpt>
      <trkpt lat="31.74166000" lon="35.15284000">
        <ele>627.00000</ele>
        <time>2010-01-01T01:51:20Z</time>
      </trkpt>
      <trkpt lat="31.74154000" lon="35.15281000">
        <ele>627.00000</ele>
        <time>2010-01-01T01:51:25Z</time>
      </trkpt>
      <trkpt lat="31.74148000" lon="35.15277000">
        <ele>628.00000</ele>
        <time>2010-01-01T01:51:27Z</time>
      </trkpt>
      <trkpt lat="31.74095000" lon="35.15228000">
        <ele>632.00000</ele>
        <time>2010-01-01T01:51:54Z</time>
      </trkpt>
      <trkpt lat="31.74086000" lon="35.15224000">
        <ele>630.00000</ele>
        <time>2010-01-01T01:51:58Z</time>
      </trkpt>
      <trkpt lat="31.74075000" lon="35.15222000">
        <ele>628.00000</ele>
        <time>2010-01-01T01:52:03Z</time>
      </trkpt>
      <trkpt lat="31.74063000" lon="35.15225000">
        <ele>625.00000</ele>
        <time>2010-01-01T01:52:08Z</time>
      </trkpt>
      <trkpt lat="31.74056000" lon="35.15224000">
        <ele>624.00000</ele>
        <time>2010-01-01T01:52:10Z</time>
      </trkpt>
      <trkpt lat="31.74050000" lon="35.15220000">
        <ele>624.00000</ele>
        <time>2010-01-01T01:52:13Z</time>
      </trkpt>
      <trkpt lat="31.74020000" lon="35.15184000">
        <ele>624.00000</ele>
        <time>2010-01-01T01:52:30Z</time>
      </trkpt>
      <trkpt lat="31.74004000" lon="35.15170000">
        <ele>622.00000</ele>
        <time>2010-01-01T01:52:38Z</time>
      </trkpt>
      <trkpt lat="31.73991000" lon="35.15163000">
        <ele>620.00000</ele>
        <time>2010-01-01T01:52:44Z</time>
      </trkpt>
      <trkpt lat="31.73985000" lon="35.15156000">
        <ele>620.00000</ele>
        <time>2010-01-01T01:52:47Z</time>
      </trkpt>
      <trkpt lat="31.73977000" lon="35.15142000">
        <ele>619.00000</ele>
        <time>2010-01-01T01:52:53Z</time>
      </trkpt>
      <trkpt lat="31.73960000" lon="35.15103000">
        <ele>621.00000</ele>
        <time>2010-01-01T01:53:08Z</time>
      </trkpt>
      <trkpt lat="31.73955000" lon="35.15093000">
        <ele>621.00000</ele>
        <time>2010-01-01T01:53:12Z</time>
      </trkpt>
      <trkpt lat="31.73950000" lon="35.15087000">
        <ele>621.00000</ele>
        <time>2010-01-01T01:53:15Z</time>
      </trkpt>
      <trkpt lat="31.73912000" lon="35.15063000">
        <ele>617.00000</ele>
        <time>2010-01-01T01:53:32Z</time>
      </trkpt>
      <trkpt lat="31.73884000" lon="35.15053000">
        <ele>611.00000</ele>
        <time>2010-01-01T01:53:44Z</time>
      </trkpt>
      <trkpt lat="31.73871000" lon="35.15043000">
        <ele>610.00000</ele>
        <time>2010-01-01T01:53:50Z</time>
      </trkpt>
      <trkpt lat="31.73856000" lon="35.15019000">
        <ele>608.00000</ele>
        <time>2010-01-01T01:54:00Z</time>
      </trkpt>
      <trkpt lat="31.73832000" lon="35.14959000">
        <ele>603.00000</ele>
        <time>2010-01-01T01:54:23Z</time>
      </trkpt>
      <trkpt lat="31.73832000" lon="35.14938000">
        <ele>602.00000</ele>
        <time>2010-01-01T01:54:30Z</time>
      </trkpt>
      <trkpt lat="31.73837000" lon="35.14914000">
        <ele>601.00000</ele>
        <time>2010-01-01T01:54:38Z</time>
      </trkpt>
      <trkpt lat="31.73837000" lon="35.14904000">
        <ele>601.00000</ele>
        <time>2010-01-01T01:54:42Z</time>
      </trkpt>
      <trkpt lat="31.73836000" lon="35.14899000">
        <ele>600.00000</ele>
        <time>2010-01-01T01:54:44Z</time>
      </trkpt>
      <trkpt lat="31.73835000" lon="35.14899000">
        <ele>600.00000</ele>
        <time>2010-01-01T01:54:44Z</time>
      </trkpt>
      <trkpt lat="31.73820000" lon="35.14869000">
        <ele>598.00000</ele>
        <time>2010-01-01T01:54:56Z</time>
      </trkpt>
      <trkpt lat="31.73796000" lon="35.14833000">
        <ele>596.00000</ele>
        <time>2010-01-01T01:55:11Z</time>
      </trkpt>
      <trkpt lat="31.73771000" lon="35.14777000">
        <ele>599.00000</ele>
        <time>2010-01-01T01:55:33Z</time>
      </trkpt>
      <trkpt lat="31.73756000" lon="35.14750000">
        <ele>601.00000</ele>
        <time>2010-01-01T01:55:44Z</time>
      </trkpt>
      <trkpt lat="31.73749000" lon="35.14740000">
        <ele>601.00000</ele>
        <time>2010-01-01T01:55:48Z</time>
      </trkpt>
      <trkpt lat="31.73737000" lon="35.14731000">
        <ele>600.00000</ele>
        <time>2010-01-01T01:55:54Z</time>
      </trkpt>
      <trkpt lat="31.73695000" lon="35.14706000">
        <ele>598.00000</ele>
        <time>2010-01-01T01:56:13Z</time>
      </trkpt>
      <trkpt lat="31.73638000" lon="35.14685000">
        <ele>596.00000</ele>
        <time>2010-01-01T01:56:37Z</time>
      </trkpt>
      <trkpt lat="31.73628000" lon="35.14678000">
        <ele>596.00000</ele>
        <time>2010-01-01T01:56:41Z</time>
      </trkpt>
      <trkpt lat="31.73612000" lon="35.14659000">
        <ele>597.00000</ele>
        <time>2010-01-01T01:56:50Z</time>
      </trkpt>
      <trkpt lat="31.73606000" lon="35.14644000">
        <ele>599.00000</ele>
        <time>2010-01-01T01:56:56Z</time>
      </trkpt>
      <trkpt lat="31.73600000" lon="35.14619000">
        <ele>601.00000</ele>
        <time>2010-01-01T01:57:05Z</time>
      </trkpt>
      <trkpt lat="31.73590000" lon="35.14589000">
        <ele>603.00000</ele>
        <time>2010-01-01T01:57:16Z</time>
      </trkpt>
      <trkpt lat="31.73585000" lon="35.14579000">
        <ele>603.00000</ele>
        <time>2010-01-01T01:57:20Z</time>
      </trkpt>
      <trkpt lat="31.73556000" lon="35.14535000">
        <ele>603.00000</ele>
        <time>2010-01-01T01:57:39Z</time>
      </trkpt>
      <trkpt lat="31.73548000" lon="35.14524000">
        <ele>604.00000</ele>
        <time>2010-01-01T01:57:44Z</time>
      </trkpt>
      <trkpt lat="31.73531000" lon="35.14510000">
        <ele>603.00000</ele>
        <time>2010-01-01T01:57:52Z</time>
      </trkpt>
      <trkpt lat="31.73495000" lon="35.14489000">
        <ele>596.00000</ele>
        <time>2010-01-01T01:58:08Z</time>
      </trkpt>
      <trkpt lat="31.73482000" lon="35.14479000">
        <ele>594.00000</ele>
        <time>2010-01-01T01:58:14Z</time>
      </trkpt>
      <trkpt lat="31.73474000" lon="35.14471000">
        <ele>593.00000</ele>
        <time>2010-01-01T01:58:19Z</time>
      </trkpt>
      <trkpt lat="31.73467000" lon="35.14458000">
        <ele>594.00000</ele>
        <time>2010-01-01T01:58:24Z</time>
      </trkpt>
      <trkpt lat="31.73468000" lon="35.14435000">
        <ele>601.00000</ele>
        <time>2010-01-01T01:58:32Z</time>
      </trkpt>
      <trkpt lat="31.73457000" lon="35.14406000">
        <ele>603.00000</ele>
        <time>2010-01-01T01:58:42Z</time>
      </trkpt>
      <trkpt lat="31.73435000" lon="35.14279000">
        <ele>603.00000</ele>
        <time>2010-01-01T01:59:27Z</time>
      </trkpt>
      <trkpt lat="31.73424000" lon="35.14256000">
        <ele>599.00000</ele>
        <time>2010-01-01T01:59:36Z</time>
      </trkpt>
      <trkpt lat="31.73414000" lon="35.14226000">
        <ele>599.00000</ele>
        <time>2010-01-01T01:59:47Z</time>
      </trkpt>
      <trkpt lat="31.73402000" lon="35.14174000">
        <ele>602.00000</ele>
        <time>2010-01-01T02:00:05Z</time>
      </trkpt>
      <trkpt lat="31.73375000" lon="35.14112000">
        <ele>603.00000</ele>
        <time>2010-01-01T02:00:29Z</time>
      </trkpt>
      <trkpt lat="31.73360000" lon="35.14089000">
        <ele>604.00000</ele>
        <time>2010-01-01T02:00:38Z</time>
      </trkpt>
      <trkpt lat="31.73344000" lon="35.14049000">
        <ele>609.00000</ele>
        <time>2010-01-01T02:00:54Z</time>
      </trkpt>
      <trkpt lat="31.73322000" lon="35.14016000">
        <ele>606.00000</ele>
        <time>2010-01-01T02:01:08Z</time>
      </trkpt>
      <trkpt lat="31.73310000" lon="35.13993000">
        <ele>604.00000</ele>
        <time>2010-01-01T02:01:17Z</time>
      </trkpt>
      <trkpt lat="31.73300000" lon="35.13980000">
        <ele>600.00000</ele>
        <time>2010-01-01T02:01:23Z</time>
      </trkpt>
      <trkpt lat="31.73299000" lon="35.13967000">
        <ele>598.00000</ele>
        <time>2010-01-01T02:01:27Z</time>
      </trkpt>
      <trkpt lat="31.73310000" lon="35.13958000">
        <ele>597.00000</ele>
        <time>2010-01-01T02:01:33Z</time>
      </trkpt>
      <trkpt lat="31.73332000" lon="35.13949000">
        <ele>597.00000</ele>
        <time>2010-01-01T02:01:42Z</time>
      </trkpt>
      <trkpt lat="31.73355000" lon="35.13944000">
        <ele>598.00000</ele>
        <time>2010-01-01T02:01:51Z</time>
      </trkpt>
      <trkpt lat="31.73372000" lon="35.13946000">
        <ele>601.00000</ele>
        <time>2010-01-01T02:01:58Z</time>
      </trkpt>
      <trkpt lat="31.73445000" lon="35.13922000">
        <ele>601.00000</ele>
        <time>2010-01-01T02:02:29Z</time>
      </trkpt>
      <trkpt lat="31.73463000" lon="35.13913000">
        <ele>599.00000</ele>
        <time>2010-01-01T02:02:36Z</time>
      </trkpt>
      <trkpt lat="31.73457000" lon="35.13913000">
        <ele>598.00000</ele>
        <time>2010-01-01T02:02:39Z</time>
      </trkpt>
      <trkpt lat="31.73457000" lon="35.13912000">
        <ele>598.00000</ele>
        <time>2010-01-01T02:02:39Z</time>
      </trkpt>
      <trkpt lat="31.73463000" lon="35.13913000">
        <ele>599.00000</ele>
        <time>2010-01-01T02:02:42Z</time>
      </trkpt>
      <trkpt lat="31.73490000" lon="35.13909000">
        <ele>601.00000</ele>
        <time>2010-01-01T02:02:53Z</time>
      </trkpt>
      <trkpt lat="31.73557000" lon="35.13906000">
        <ele>607.00000</ele>
        <time>2010-01-01T02:03:19Z</time>
      </trkpt>
      <trkpt lat="31.73597000" lon="35.13902000">
        <ele>612.00000</ele>
        <time>2010-01-01T02:03:35Z</time>
      </trkpt>
      <trkpt lat="31.73649000" lon="35.13889000">
        <ele>618.00000</ele>
        <time>2010-01-01T02:03:57Z</time>
      </trkpt>
      <trkpt lat="31.73664000" lon="35.13887000">
        <ele>620.00000</ele>
        <time>2010-01-01T02:04:03Z</time>
      </trkpt>
      <trkpt lat="31.73711000" lon="35.13887000">
        <ele>625.00000</ele>
        <time>2010-01-01T02:04:22Z</time>
      </trkpt>
      <trkpt lat="31.73773000" lon="35.13879000">
        <ele>629.00000</ele>
        <time>2010-01-01T02:04:47Z</time>
      </trkpt>
      <trkpt lat="31.73796000" lon="35.13882000">
        <ele>635.00000</ele>
        <time>2010-01-01T02:04:56Z</time>
      </trkpt>
      <trkpt lat="31.73802000" lon="35.13881000">
        <ele>637.00000</ele>
        <time>2010-01-01T02:04:58Z</time>
      </trkpt>
      <trkpt lat="31.73809000" lon="35.13877000">
        <ele>638.00000</ele>
        <time>2010-01-01T02:05:01Z</time>
      </trkpt>
      <trkpt lat="31.73813000" lon="35.13865000">
        <ele>639.00000</ele>
        <time>2010-01-01T02:05:06Z</time>
      </trkpt>
      <trkpt lat="31.73811000" lon="35.13857000">
        <ele>638.00000</ele>
        <time>2010-01-01T02:05:09Z</time>
      </trkpt>
      <trkpt lat="31.73798000" lon="35.13832000">
        <ele>636.00000</ele>
        <time>2010-01-01T02:05:19Z</time>
      </trkpt>
      <trkpt lat="31.73792000" lon="35.13810000">
        <ele>636.00000</ele>
        <time>2010-01-01T02:05:26Z</time>
      </trkpt>
      <trkpt lat="31.73789000" lon="35.13790000">
        <ele>636.00000</ele>
        <time>2010-01-01T02:05:33Z</time>
      </trkpt>
      <trkpt lat="31.73789000" lon="35.13775000">
        <ele>636.00000</ele>
        <time>2010-01-01T02:05:38Z</time>
      </trkpt>
      <trkpt lat="31.73791000" lon="35.13760000">
        <ele>637.00000</ele>
        <time>2010-01-01T02:05:44Z</time>
      </trkpt>
      <trkpt lat="31.73807000" lon="35.13701000">
        <ele>641.00000</ele>
        <time>2010-01-01T02:06:05Z</time>
      </trkpt>
      <trkpt lat="31.73811000" lon="35.13678000">
        <ele>641.00000</ele>
        <time>2010-01-01T02:06:13Z</time>
      </trkpt>
      <trkpt lat="31.73832000" lon="35.13614000">
        <ele>652.00000</ele>
        <time>2010-01-01T02:06:36Z</time>
      </trkpt>
      <trkpt lat="31.73838000" lon="35.13571000">
        <ele>653.00000</ele>
        <time>2010-01-01T02:06:51Z</time>
      </trkpt>
      <trkpt lat="31.73841000" lon="35.13528000">
        <ele>653.00000</ele>
        <time>2010-01-01T02:07:06Z</time>
      </trkpt>
      <trkpt lat="31.73838000" lon="35.13455000">
        <ele>656.00000</ele>
        <time>2010-01-01T02:07:30Z</time>
      </trkpt>
      <trkpt lat="31.73840000" lon="35.13413000">
        <ele>658.00000</ele>
        <time>2010-01-01T02:07:45Z</time>
      </trkpt>
      <trkpt lat="31.73840000" lon="35.13361000">
        <ele>663.00000</ele>
        <time>2010-01-01T02:08:02Z</time>
      </trkpt>
      <trkpt lat="31.73838000" lon="35.13320000">
        <ele>668.00000</ele>
        <time>2010-01-01T02:08:16Z</time>
      </trkpt>
      <trkpt lat="31.73842000" lon="35.13282000">
        <ele>667.00000</ele>
        <time>2010-01-01T02:08:29Z</time>
      </trkpt>
      <trkpt lat="31.73848000" lon="35.13253000">
        <ele>667.00000</ele>
        <time>2010-01-01T02:08:40Z</time>
      </trkpt>
      <trkpt lat="31.73855000" lon="35.13237000">
        <ele>669.00000</ele>
        <time>2010-01-01T02:08:46Z</time>
      </trkpt>
      <trkpt lat="31.73866000" lon="35.13223000">
        <ele>671.00000</ele>
        <time>2010-01-01T02:08:52Z</time>
      </trkpt>
      <trkpt lat="31.73885000" lon="35.13206000">
        <ele>674.00000</ele>
        <time>2010-01-01T02:09:02Z</time>
      </trkpt>
      <trkpt lat="31.73898000" lon="35.13196000">
        <ele>674.00000</ele>
        <time>2010-01-01T02:09:08Z</time>
      </trkpt>
      <trkpt lat="31.73910000" lon="35.13190000">
        <ele>673.00000</ele>
        <time>2010-01-01T02:09:13Z</time>
      </trkpt>
      <trkpt lat="31.73931000" lon="35.13185000">
        <ele>674.00000</ele>
        <time>2010-01-01T02:09:22Z</time>
      </trkpt>
      <trkpt lat="31.73940000" lon="35.13187000">
        <ele>675.00000</ele>
        <time>2010-01-01T02:09:26Z</time>
      </trkpt>
      <trkpt lat="31.73953000" lon="35.13192000">
        <ele>677.00000</ele>
        <time>2010-01-01T02:09:31Z</time>
      </trkpt>
      <trkpt lat="31.73980000" lon="35.13207000">
        <ele>681.00000</ele>
        <time>2010-01-01T02:09:43Z</time>
      </trkpt>
      <trkpt lat="31.74003000" lon="35.13225000">
        <ele>684.00000</ele>
        <time>2010-01-01T02:09:54Z</time>
      </trkpt>
      <trkpt lat="31.74018000" lon="35.13225000">
        <ele>683.00000</ele>
        <time>2010-01-01T02:10:00Z</time>
      </trkpt>
      <trkpt lat="31.74028000" lon="35.13229000">
        <ele>683.00000</ele>
        <time>2010-01-01T02:10:04Z</time>
      </trkpt>
      <trkpt lat="31.74116000" lon="35.13297000">
        <ele>688.00000</ele>
        <time>2010-01-01T02:10:46Z</time>
      </trkpt>
      <trkpt lat="31.74135000" lon="35.13309000">
        <ele>688.00000</ele>
        <time>2010-01-01T02:10:55Z</time>
      </trkpt>
      <trkpt lat="31.74147000" lon="35.13314000">
        <ele>686.00000</ele>
        <time>2010-01-01T02:11:00Z</time>
      </trkpt>
      <trkpt lat="31.74146000" lon="35.13314000">
        <ele>687.00000</ele>
        <time>2010-01-01T02:11:01Z</time>
      </trkpt>
      <trkpt lat="31.74169000" lon="35.13323000">
        <ele>684.00000</ele>
        <time>2010-01-01T02:11:10Z</time>
      </trkpt>
      <trkpt lat="31.74208000" lon="35.13332000">
        <ele>675.00000</ele>
        <time>2010-01-01T02:11:26Z</time>
      </trkpt>
      <trkpt lat="31.74251000" lon="35.13336000">
        <ele>671.00000</ele>
        <time>2010-01-01T02:11:43Z</time>
      </trkpt>
      <trkpt lat="31.74337000" lon="35.13338000">
        <ele>671.00000</ele>
        <time>2010-01-01T02:12:18Z</time>
      </trkpt>
      <trkpt lat="31.74344000" lon="35.13335000">
        <ele>671.00000</ele>
        <time>2010-01-01T02:12:21Z</time>
      </trkpt>
      <trkpt lat="31.74350000" lon="35.13330000">
        <ele>670.00000</ele>
        <time>2010-01-01T02:12:24Z</time>
      </trkpt>
      <trkpt lat="31.74354000" lon="35.13318000">
        <ele>669.00000</ele>
        <time>2010-01-01T02:12:28Z</time>
      </trkpt>
      <trkpt lat="31.74352000" lon="35.13306000">
        <ele>666.00000</ele>
        <time>2010-01-01T02:12:32Z</time>
      </trkpt>
      <trkpt lat="31.74344000" lon="35.13277000">
        <ele>661.00000</ele>
        <time>2010-01-01T02:12:43Z</time>
      </trkpt>
      <trkpt lat="31.74340000" lon="35.13248000">
        <ele>658.00000</ele>
        <time>2010-01-01T02:12:53Z</time>
      </trkpt>
      <trkpt lat="31.74339000" lon="35.13201000">
        <ele>655.00000</ele>
        <time>2010-01-01T02:13:09Z</time>
      </trkpt>
      <trkpt lat="31.74341000" lon="35.13176000">
        <ele>653.00000</ele>
        <time>2010-01-01T02:13:17Z</time>
      </trkpt>
      <trkpt lat="31.74347000" lon="35.13134000">
        <ele>649.00000</ele>
        <time>2010-01-01T02:13:32Z</time>
      </trkpt>
      <trkpt lat="31.74353000" lon="35.13114000">
        <ele>649.00000</ele>
        <time>2010-01-01T02:13:39Z</time>
      </trkpt>
      <trkpt lat="31.74361000" lon="35.13095000">
        <ele>649.00000</ele>
        <time>2010-01-01T02:13:46Z</time>
      </trkpt>
      <trkpt lat="31.74374000" lon="35.13074000">
        <ele>648.00000</ele>
        <time>2010-01-01T02:13:55Z</time>
      </trkpt>
      <trkpt lat="31.74391000" lon="35.13052000">
        <ele>645.00000</ele>
        <time>2010-01-01T02:14:05Z</time>
      </trkpt>
      <trkpt lat="31.74414000" lon="35.13032000">
        <ele>643.00000</ele>
        <time>2010-01-01T02:14:17Z</time>
      </trkpt>
      <trkpt lat="31.74473000" lon="35.13001000">
        <ele>643.00000</ele>
        <time>2010-01-01T02:14:42Z</time>
      </trkpt>
      <trkpt lat="31.74497000" lon="35.12991000">
        <ele>639.00000</ele>
        <time>2010-01-01T02:14:53Z</time>
      </trkpt>
      <trkpt lat="31.74522000" lon="35.12984000">
        <ele>635.00000</ele>
        <time>2010-01-01T02:15:03Z</time>
      </trkpt>
      <trkpt lat="31.74540000" lon="35.12982000">
        <ele>634.00000</ele>
        <time>2010-01-01T02:15:10Z</time>
      </trkpt>
      <trkpt lat="31.74554000" lon="35.12983000">
        <ele>634.00000</ele>
        <time>2010-01-01T02:15:16Z</time>
      </trkpt>
      <trkpt lat="31.74579000" lon="35.12979000">
        <ele>634.00000</ele>
        <time>2010-01-01T02:15:26Z</time>
      </trkpt>
      <trkpt lat="31.74644000" lon="35.12943000">
        <ele>625.00000</ele>
        <time>2010-01-01T02:15:55Z</time>
      </trkpt>
      <trkpt lat="31.74672000" lon="35.12935000">
        <ele>626.00000</ele>
        <time>2010-01-01T02:16:06Z</time>
      </trkpt>
      <trkpt lat="31.74701000" lon="35.12932000">
        <ele>629.00000</ele>
        <time>2010-01-01T02:16:18Z</time>
      </trkpt>
      <trkpt lat="31.74707000" lon="35.12928000">
        <ele>630.00000</ele>
        <time>2010-01-01T02:16:21Z</time>
      </trkpt>
      <trkpt lat="31.74715000" lon="35.12920000">
        <ele>630.00000</ele>
        <time>2010-01-01T02:16:25Z</time>
      </trkpt>
      <trkpt lat="31.74719000" lon="35.12908000">
        <ele>628.00000</ele>
        <time>2010-01-01T02:16:29Z</time>
      </trkpt>
      <trkpt lat="31.74720000" lon="35.12891000">
        <ele>623.00000</ele>
        <time>2010-01-01T02:16:35Z</time>
      </trkpt>
      <trkpt lat="31.74717000" lon="35.12849000">
        <ele>613.00000</ele>
        <time>2010-01-01T02:16:49Z</time>
      </trkpt>
      <trkpt lat="31.74719000" lon="35.12823000">
        <ele>608.00000</ele>
        <time>2010-01-01T02:16:58Z</time>
      </trkpt>
      <trkpt lat="31.74722000" lon="35.12807000">
        <ele>608.00000</ele>
        <time>2010-01-01T02:17:04Z</time>
      </trkpt>
      <trkpt lat="31.74730000" lon="35.12793000">
        <ele>612.00000</ele>
        <time>2010-01-01T02:17:10Z</time>
      </trkpt>
      <trkpt lat="31.74735000" lon="35.12777000">
        <ele>614.00000</ele>
        <time>2010-01-01T02:17:15Z</time>
      </trkpt>
      <trkpt lat="31.74727000" lon="35.12762000">
        <ele>615.00000</ele>
        <time>2010-01-01T02:17:21Z</time>
      </trkpt>
      <trkpt lat="31.74717000" lon="35.12752000">
        <ele>613.00000</ele>
        <time>2010-01-01T02:17:27Z</time>
      </trkpt>
      <trkpt lat="31.74690000" lon="35.12736000">
        <ele>608.00000</ele>
        <time>2010-01-01T02:17:39Z</time>
      </trkpt>
      <trkpt lat="31.74690000" lon="35.12735000">
        <ele>608.00000</ele>
        <time>2010-01-01T02:17:39Z</time>
      </trkpt>
      <trkpt lat="31.74652000" lon="35.12707000">
        <ele>599.00000</ele>
        <time>2010-01-01T02:17:57Z</time>
      </trkpt>
      <trkpt lat="31.74626000" lon="35.12691000">
        <ele>596.00000</ele>
        <time>2010-01-01T02:18:09Z</time>
      </trkpt>
      <trkpt lat="31.74614000" lon="35.12680000">
        <ele>596.00000</ele>
        <time>2010-01-01T02:18:15Z</time>
      </trkpt>
      <trkpt lat="31.74607000" lon="35.12671000">
        <ele>596.00000</ele>
        <time>2010-01-01T02:18:19Z</time>
      </trkpt>
      <trkpt lat="31.74601000" lon="35.12660000">
        <ele>595.00000</ele>
        <time>2010-01-01T02:18:23Z</time>
      </trkpt>
      <trkpt lat="31.74598000" lon="35.12649000">
        <ele>596.00000</ele>
        <time>2010-01-01T02:18:27Z</time>
      </trkpt>
      <trkpt lat="31.74597000" lon="35.12633000">
        <ele>596.00000</ele>
        <time>2010-01-01T02:18:33Z</time>
      </trkpt>
      <trkpt lat="31.74608000" lon="35.12576000">
        <ele>595.00000</ele>
        <time>2010-01-01T02:18:53Z</time>
      </trkpt>
      <trkpt lat="31.74608000" lon="35.12567000">
        <ele>596.00000</ele>
        <time>2010-01-01T02:18:56Z</time>
      </trkpt>
      <trkpt lat="31.74600000" lon="35.12552000">
        <ele>592.00000</ele>
        <time>2010-01-01T02:19:02Z</time>
      </trkpt>
      <trkpt lat="31.74586000" lon="35.12535000">
        <ele>588.00000</ele>
        <time>2010-01-01T02:19:10Z</time>
      </trkpt>
      <trkpt lat="31.74580000" lon="35.12522000">
        <ele>587.00000</ele>
        <time>2010-01-01T02:19:15Z</time>
      </trkpt>
      <trkpt lat="31.74569000" lon="35.12483000">
        <ele>585.00000</ele>
        <time>2010-01-01T02:19:29Z</time>
      </trkpt>
      <trkpt lat="31.74556000" lon="35.12446000">
        <ele>582.00000</ele>
        <time>2010-01-01T02:19:43Z</time>
      </trkpt>
      <trkpt lat="31.74538000" lon="35.12380000">
        <ele>583.00000</ele>
        <time>2010-01-01T02:20:06Z</time>
      </trkpt>
      <trkpt lat="31.74510000" lon="35.12312000">
        <ele>578.00000</ele>
        <time>2010-01-01T02:20:32Z</time>
      </trkpt>
      <trkpt lat="31.74504000" lon="35.12294000">
        <ele>576.00000</ele>
        <time>2010-01-01T02:20:38Z</time>
      </trkpt>
      <trkpt lat="31.74500000" lon="35.12271000">
        <ele>573.00000</ele>
        <time>2010-01-01T02:20:46Z</time>
      </trkpt>
      <trkpt lat="31.74498000" lon="35.12240000">
        <ele>573.00000</ele>
        <time>2010-01-01T02:20:57Z</time>
      </trkpt>
      <trkpt lat="31.74494000" lon="35.12228000">
        <ele>574.00000</ele>
        <time>2010-01-01T02:21:01Z</time>
      </trkpt>
      <trkpt lat="31.74483000" lon="35.12216000">
        <ele>572.00000</ele>
        <time>2010-01-01T02:21:07Z</time>
      </trkpt>
      <trkpt lat="31.74430000" lon="35.12174000">
        <ele>566.00000</ele>
        <time>2010-01-01T02:21:33Z</time>
      </trkpt>
      <trkpt lat="31.74378000" lon="35.12127000">
        <ele>559.00000</ele>
        <time>2010-01-01T02:21:59Z</time>
      </trkpt>
      <trkpt lat="31.74338000" lon="35.12084000">
        <ele>554.00000</ele>
        <time>2010-01-01T02:22:21Z</time>
      </trkpt>
      <trkpt lat="31.74338000" lon="35.12083000">
        <ele>555.00000</ele>
        <time>2010-01-01T02:22:21Z</time>
      </trkpt>
      <trkpt lat="31.74298000" lon="35.12037000">
        <ele>552.00000</ele>
        <time>2010-01-01T02:22:44Z</time>
      </trkpt>
      <trkpt lat="31.74290000" lon="35.12032000">
        <ele>551.00000</ele>
        <time>2010-01-01T02:22:47Z</time>
      </trkpt>
      <trkpt lat="31.74240000" lon="35.12018000">
        <ele>546.00000</ele>
        <time>2010-01-01T02:23:08Z</time>
      </trkpt>
      <trkpt lat="31.74215000" lon="35.12009000">
        <ele>544.00000</ele>
        <time>2010-01-01T02:23:18Z</time>
      </trkpt>
      <trkpt lat="31.74190000" lon="35.11993000">
        <ele>545.00000</ele>
        <time>2010-01-01T02:23:30Z</time>
      </trkpt>
      <trkpt lat="31.74150000" lon="35.11974000">
        <ele>546.00000</ele>
        <time>2010-01-01T02:23:47Z</time>
      </trkpt>
      <trkpt lat="31.74075000" lon="35.11943000">
        <ele>540.00000</ele>
        <time>2010-01-01T02:24:19Z</time>
      </trkpt>
      <trkpt lat="31.74027000" lon="35.11928000">
        <ele>533.00000</ele>
        <time>2010-01-01T02:24:39Z</time>
      </trkpt>
      <trkpt lat="31.73994000" lon="35.11924000">
        <ele>529.00000</ele>
        <time>2010-01-01T02:24:52Z</time>
      </trkpt>
      <trkpt lat="31.73949000" lon="35.11915000">
        <ele>525.00000</ele>
        <time>2010-01-01T02:25:10Z</time>
      </trkpt>
      <trkpt lat="31.73874000" lon="35.11904000">
        <ele>531.00000</ele>
        <time>2010-01-01T02:25:41Z</time>
      </trkpt>
      <trkpt lat="31.73694000" lon="35.11884000">
        <ele>518.00000</ele>
        <time>2010-01-01T02:26:53Z</time>
      </trkpt>
      <trkpt lat="31.73673000" lon="35.11878000">
        <ele>519.00000</ele>
        <time>2010-01-01T02:27:02Z</time>
      </trkpt>
      <trkpt lat="31.73629000" lon="35.11856000">
        <ele>515.00000</ele>
        <time>2010-01-01T02:27:21Z</time>
      </trkpt>
      <trkpt lat="31.73622000" lon="35.11856000">
        <ele>514.00000</ele>
        <time>2010-01-01T02:27:23Z</time>
      </trkpt>
      <trkpt lat="31.73600000" lon="35.11867000">
        <ele>514.00000</ele>
        <time>2010-01-01T02:27:33Z</time>
      </trkpt>
      <trkpt lat="31.73591000" lon="35.11840000">
        <ele>515.00000</ele>
        <time>2010-01-01T02:27:43Z</time>
      </trkpt>
      <trkpt lat="31.73595000" lon="35.11781000">
        <ele>517.00000</ele>
        <time>2010-01-01T02:28:03Z</time>
      </trkpt>
      <trkpt lat="31.73613000" lon="35.11730000">
        <ele>512.00000</ele>
        <time>2010-01-01T02:28:22Z</time>
      </trkpt>
      <trkpt lat="31.73660000" lon="35.11653000">
        <ele>511.00000</ele>
        <time>2010-01-01T02:28:54Z</time>
      </trkpt>
      <trkpt lat="31.73680000" lon="35.11619000">
        <ele>510.00000</ele>
        <time>2010-01-01T02:29:08Z</time>
      </trkpt>
      <trkpt lat="31.73714000" lon="35.11493000">
        <ele>513.00000</ele>
        <time>2010-01-01T02:29:53Z</time>
      </trkpt>
      <trkpt lat="31.73715000" lon="35.11464000">
        <ele>514.00000</ele>
        <time>2010-01-01T02:30:03Z</time>
      </trkpt>
      <trkpt lat="31.73721000" lon="35.11448000">
        <ele>513.00000</ele>
        <time>2010-01-01T02:30:09Z</time>
      </trkpt>
      <trkpt lat="31.73728000" lon="35.11447000">
        <ele>513.00000</ele>
        <time>2010-01-01T02:30:12Z</time>
      </trkpt>
      <trkpt lat="31.73736000" lon="35.11448000">
        <ele>513.00000</ele>
        <time>2010-01-01T02:30:15Z</time>
      </trkpt>
      <trkpt lat="31.73741000" lon="35.11438000">
        <ele>512.00000</ele>
        <time>2010-01-01T02:30:19Z</time>
      </trkpt>
      <trkpt lat="31.73748000" lon="35.11405000">
        <ele>507.00000</ele>
        <time>2010-01-01T02:30:31Z</time>
      </trkpt>
      <trkpt lat="31.73767000" lon="35.11373000">
        <ele>508.00000</ele>
        <time>2010-01-01T02:30:44Z</time>
      </trkpt>
      <trkpt lat="31.73801000" lon="35.11300000">
        <ele>507.00000</ele>
        <time>2010-01-01T02:31:12Z</time>
      </trkpt>
      <trkpt lat="31.73851000" lon="35.11226000">
        <ele>503.00000</ele>
        <time>2010-01-01T02:31:44Z</time>
      </trkpt>
      <trkpt lat="31.73876000" lon="35.11201000">
        <ele>501.00000</ele>
        <time>2010-01-01T02:31:58Z</time>
      </trkpt>
      <trkpt lat="31.74023000" lon="35.11143000">
        <ele>506.00000</ele>
        <time>2010-01-01T02:33:00Z</time>
      </trkpt>
      <trkpt lat="31.74061000" lon="35.11116000">
        <ele>503.00000</ele>
        <time>2010-01-01T02:33:17Z</time>
      </trkpt>
      <trkpt lat="31.74087000" lon="35.11077000">
        <ele>500.00000</ele>
        <time>2010-01-01T02:33:34Z</time>
      </trkpt>
      <trkpt lat="31.74118000" lon="35.11021000">
        <ele>501.00000</ele>
        <time>2010-01-01T02:33:57Z</time>
      </trkpt>
      <trkpt lat="31.74139000" lon="35.10918000">
        <ele>498.00000</ele>
        <time>2010-01-01T02:34:33Z</time>
      </trkpt>
      <trkpt lat="31.74151000" lon="35.10879000">
        <ele>501.00000</ele>
        <time>2010-01-01T02:34:47Z</time>
      </trkpt>
      <trkpt lat="31.74147000" lon="35.10847000">
        <ele>501.00000</ele>
        <time>2010-01-01T02:34:58Z</time>
      </trkpt>
      <trkpt lat="31.74146000" lon="35.10847000">
        <ele>501.00000</ele>
        <time>2010-01-01T02:34:59Z</time>
      </trkpt>
      <trkpt lat="31.74107000" lon="35.10788000">
        <ele>493.00000</ele>
        <time>2010-01-01T02:35:24Z</time>
      </trkpt>
      <trkpt lat="31.74099000" lon="35.10762000">
        <ele>492.00000</ele>
        <time>2010-01-01T02:35:33Z</time>
      </trkpt>
      <trkpt lat="31.74108000" lon="35.10729000">
        <ele>492.00000</ele>
        <time>2010-01-01T02:35:45Z</time>
      </trkpt>
      <trkpt lat="31.74137000" lon="35.10682000">
        <ele>490.00000</ele>
        <time>2010-01-01T02:36:05Z</time>
      </trkpt>
      <trkpt lat="31.74147000" lon="35.10673000">
        <ele>489.00000</ele>
        <time>2010-01-01T02:36:10Z</time>
      </trkpt>
      <trkpt lat="31.74225000" lon="35.10642000">
        <ele>493.00000</ele>
        <time>2010-01-01T02:36:43Z</time>
      </trkpt>
      <trkpt lat="31.74237000" lon="35.10635000">
        <ele>496.00000</ele>
        <time>2010-01-01T02:36:48Z</time>
      </trkpt>
      <trkpt lat="31.74242000" lon="35.10630000">
        <ele>496.00000</ele>
        <time>2010-01-01T02:36:51Z</time>
      </trkpt>
      <trkpt lat="31.74248000" lon="35.10621000">
        <ele>496.00000</ele>
        <time>2010-01-01T02:36:55Z</time>
      </trkpt>
      <trkpt lat="31.74254000" lon="35.10606000">
        <ele>494.00000</ele>
        <time>2010-01-01T02:37:01Z</time>
      </trkpt>
      <trkpt lat="31.74259000" lon="35.10587000">
        <ele>492.00000</ele>
        <time>2010-01-01T02:37:07Z</time>
      </trkpt>
      <trkpt lat="31.74295000" lon="35.10477000">
        <ele>486.00000</ele>
        <time>2010-01-01T02:37:47Z</time>
      </trkpt>
      <trkpt lat="31.74296000" lon="35.10469000">
        <ele>486.00000</ele>
        <time>2010-01-01T02:37:50Z</time>
      </trkpt>
      <trkpt lat="31.74292000" lon="35.10453000">
        <ele>486.00000</ele>
        <time>2010-01-01T02:37:56Z</time>
      </trkpt>
      <trkpt lat="31.74282000" lon="35.10433000">
        <ele>484.00000</ele>
        <time>2010-01-01T02:38:04Z</time>
      </trkpt>
      <trkpt lat="31.74279000" lon="35.10418000">
        <ele>484.00000</ele>
        <time>2010-01-01T02:38:09Z</time>
      </trkpt>
      <trkpt lat="31.74275000" lon="35.10387000">
        <ele>484.00000</ele>
        <time>2010-01-01T02:38:20Z</time>
      </trkpt>
      <trkpt lat="31.74276000" lon="35.10370000">
        <ele>484.00000</ele>
        <time>2010-01-01T02:38:26Z</time>
      </trkpt>
      <trkpt lat="31.74280000" lon="35.10355000">
        <ele>483.00000</ele>
        <time>2010-01-01T02:38:31Z</time>
      </trkpt>
      <trkpt lat="31.74312000" lon="35.10253000">
        <ele>484.00000</ele>
        <time>2010-01-01T02:39:08Z</time>
      </trkpt>
      <trkpt lat="31.74315000" lon="35.10197000">
        <ele>483.00000</ele>
        <time>2010-01-01T02:39:27Z</time>
      </trkpt>
      <trkpt lat="31.74315000" lon="35.10120000">
        <ele>484.00000</ele>
        <time>2010-01-01T02:39:53Z</time>
      </trkpt>
      <trkpt lat="31.74317000" lon="35.10082000">
        <ele>483.00000</ele>
        <time>2010-01-01T02:40:06Z</time>
      </trkpt>
      <trkpt lat="31.74316000" lon="35.10057000">
        <ele>484.00000</ele>
        <time>2010-01-01T02:40:15Z</time>
      </trkpt>
      <trkpt lat="31.74310000" lon="35.10022000">
        <ele>486.00000</ele>
        <time>2010-01-01T02:40:27Z</time>
      </trkpt>
      <trkpt lat="31.74307000" lon="35.10007000">
        <ele>488.00000</ele>
        <time>2010-01-01T02:40:32Z</time>
      </trkpt>
      <trkpt lat="31.74302000" lon="35.09995000">
        <ele>488.00000</ele>
        <time>2010-01-01T02:40:37Z</time>
      </trkpt>
      <trkpt lat="31.74269000" lon="35.09937000">
        <ele>480.00000</ele>
        <time>2010-01-01T02:41:00Z</time>
      </trkpt>
      <trkpt lat="31.74269000" lon="35.09936000">
        <ele>480.00000</ele>
        <time>2010-01-01T02:41:01Z</time>
      </trkpt>
      <trkpt lat="31.74241000" lon="35.09887000">
        <ele>479.00000</ele>
        <time>2010-01-01T02:41:21Z</time>
      </trkpt>
      <trkpt lat="31.74203000" lon="35.09839000">
        <ele>475.00000</ele>
        <time>2010-01-01T02:41:43Z</time>
      </trkpt>
      <trkpt lat="31.74183000" lon="35.09808000">
        <ele>475.00000</ele>
        <time>2010-01-01T02:41:56Z</time>
      </trkpt>
      <trkpt lat="31.74165000" lon="35.09772000">
        <ele>476.00000</ele>
        <time>2010-01-01T02:42:11Z</time>
      </trkpt>
      <trkpt lat="31.74143000" lon="35.09689000">
        <ele>475.00000</ele>
        <time>2010-01-01T02:42:40Z</time>
      </trkpt>
      <trkpt lat="31.74141000" lon="35.09661000">
        <ele>475.00000</ele>
        <time>2010-01-01T02:42:50Z</time>
      </trkpt>
      <trkpt lat="31.74135000" lon="35.09620000">
        <ele>474.00000</ele>
        <time>2010-01-01T02:43:04Z</time>
      </trkpt>
      <trkpt lat="31.74136000" lon="35.09602000">
        <ele>473.00000</ele>
        <time>2010-01-01T02:43:10Z</time>
      </trkpt>
      <trkpt lat="31.74147000" lon="35.09567000">
        <ele>472.00000</ele>
        <time>2010-01-01T02:43:23Z</time>
      </trkpt>
      <trkpt lat="31.74157000" lon="35.09544000">
        <ele>472.00000</ele>
        <time>2010-01-01T02:43:32Z</time>
      </trkpt>
      <trkpt lat="31.74165000" lon="35.09531000">
        <ele>472.00000</ele>
        <time>2010-01-01T02:43:37Z</time>
      </trkpt>
      <trkpt lat="31.74177000" lon="35.09515000">
        <ele>472.00000</ele>
        <time>2010-01-01T02:43:44Z</time>
      </trkpt>
      <trkpt lat="31.74189000" lon="35.09504000">
        <ele>472.00000</ele>
        <time>2010-01-01T02:43:50Z</time>
      </trkpt>
      <trkpt lat="31.74199000" lon="35.09497000">
        <ele>473.00000</ele>
        <time>2010-01-01T02:43:55Z</time>
      </trkpt>
      <trkpt lat="31.74217000" lon="35.09492000">
        <ele>473.00000</ele>
        <time>2010-01-01T02:44:02Z</time>
      </trkpt>
      <trkpt lat="31.74227000" lon="35.09492000">
        <ele>472.00000</ele>
        <time>2010-01-01T02:44:06Z</time>
      </trkpt>
      <trkpt lat="31.74255000" lon="35.09497000">
        <ele>470.00000</ele>
        <time>2010-01-01T02:44:18Z</time>
      </trkpt>
      <trkpt lat="31.74295000" lon="35.09512000">
        <ele>472.00000</ele>
        <time>2010-01-01T02:44:35Z</time>
      </trkpt>
      <trkpt lat="31.74310000" lon="35.09515000">
        <ele>474.00000</ele>
        <time>2010-01-01T02:44:41Z</time>
      </trkpt>
      <trkpt lat="31.74328000" lon="35.09515000">
        <ele>475.00000</ele>
        <time>2010-01-01T02:44:48Z</time>
      </trkpt>
      <trkpt lat="31.74337000" lon="35.09513000">
        <ele>476.00000</ele>
        <time>2010-01-01T02:44:52Z</time>
      </trkpt>
      <trkpt lat="31.74360000" lon="35.09503000">
        <ele>474.00000</ele>
        <time>2010-01-01T02:45:01Z</time>
      </trkpt>
      <trkpt lat="31.74386000" lon="35.09482000">
        <ele>473.00000</ele>
        <time>2010-01-01T02:45:14Z</time>
      </trkpt>
      <trkpt lat="31.74402000" lon="35.09452000">
        <ele>472.00000</ele>
        <time>2010-01-01T02:45:26Z</time>
      </trkpt>
      <trkpt lat="31.74410000" lon="35.09440000">
        <ele>471.00000</ele>
        <time>2010-01-01T02:45:31Z</time>
      </trkpt>
      <trkpt lat="31.74422000" lon="35.09431000">
        <ele>472.00000</ele>
        <time>2010-01-01T02:45:37Z</time>
      </trkpt>
      <trkpt lat="31.74436000" lon="35.09427000">
        <ele>471.00000</ele>
        <time>2010-01-01T02:45:43Z</time>
      </trkpt>
      <trkpt lat="31.74470000" lon="35.09411000">
        <ele>472.00000</ele>
        <time>2010-01-01T02:45:57Z</time>
      </trkpt>
      <trkpt lat="31.74511000" lon="35.09397000">
        <ele>471.00000</ele>
        <time>2010-01-01T02:46:14Z</time>
      </trkpt>
      <trkpt lat="31.74522000" lon="35.09395000">
        <ele>471.00000</ele>
        <time>2010-01-01T02:46:19Z</time>
      </trkpt>
      <trkpt lat="31.74563000" lon="35.09394000">
        <ele>470.00000</ele>
        <time>2010-01-01T02:46:35Z</time>
      </trkpt>
      <trkpt lat="31.74570000" lon="35.09393000">
        <ele>471.00000</ele>
        <time>2010-01-01T02:46:38Z</time>
      </trkpt>
      <trkpt lat="31.74611000" lon="35.09373000">
        <ele>471.00000</ele>
        <time>2010-01-01T02:46:56Z</time>
      </trkpt>
      <trkpt lat="31.74627000" lon="35.09368000">
        <ele>468.00000</ele>
        <time>2010-01-01T02:47:03Z</time>
      </trkpt>
      <trkpt lat="31.74637000" lon="35.09367000">
        <ele>466.00000</ele>
        <time>2010-01-01T02:47:07Z</time>
      </trkpt>
      <trkpt lat="31.74646000" lon="35.09369000">
        <ele>465.00000</ele>
        <time>2010-01-01T02:47:10Z</time>
      </trkpt>
      <trkpt lat="31.74651000" lon="35.09373000">
        <ele>464.00000</ele>
        <time>2010-01-01T02:47:13Z</time>
      </trkpt>
      <trkpt lat="31.74656000" lon="35.09382000">
        <ele>464.00000</ele>
        <time>2010-01-01T02:47:16Z</time>
      </trkpt>
      <trkpt lat="31.74660000" lon="35.09410000">
        <ele>466.00000</ele>
        <time>2010-01-01T02:47:26Z</time>
      </trkpt>
      <trkpt lat="31.74664000" lon="35.09421000">
        <ele>466.00000</ele>
        <time>2010-01-01T02:47:30Z</time>
      </trkpt>
      <trkpt lat="31.74678000" lon="35.09439000">
        <ele>465.00000</ele>
        <time>2010-01-01T02:47:38Z</time>
      </trkpt>
      <trkpt lat="31.74686000" lon="35.09447000">
        <ele>465.00000</ele>
        <time>2010-01-01T02:47:43Z</time>
      </trkpt>
      <trkpt lat="31.74700000" lon="35.09455000">
        <ele>467.00000</ele>
        <time>2010-01-01T02:47:49Z</time>
      </trkpt>
      <trkpt lat="31.74713000" lon="35.09460000">
        <ele>469.00000</ele>
        <time>2010-01-01T02:47:54Z</time>
      </trkpt>
      <trkpt lat="31.74724000" lon="35.09461000">
        <ele>470.00000</ele>
        <time>2010-01-01T02:47:59Z</time>
      </trkpt>
      <trkpt lat="31.74737000" lon="35.09460000">
        <ele>474.00000</ele>
        <time>2010-01-01T02:48:04Z</time>
      </trkpt>
      <trkpt lat="31.74752000" lon="35.09457000">
        <ele>477.00000</ele>
        <time>2010-01-01T02:48:10Z</time>
      </trkpt>
      <trkpt lat="31.74774000" lon="35.09446000">
        <ele>475.00000</ele>
        <time>2010-01-01T02:48:20Z</time>
      </trkpt>
      <trkpt lat="31.74820000" lon="35.09410000">
        <ele>470.00000</ele>
        <time>2010-01-01T02:48:42Z</time>
      </trkpt>
      <trkpt lat="31.74906000" lon="35.09364000">
        <ele>465.00000</ele>
        <time>2010-01-01T02:49:19Z</time>
      </trkpt>
      <trkpt lat="31.74929000" lon="35.09362000">
        <ele>465.00000</ele>
        <time>2010-01-01T02:49:29Z</time>
      </trkpt>
      <trkpt lat="31.74977000" lon="35.09344000">
        <ele>464.00000</ele>
        <time>2010-01-01T02:49:49Z</time>
      </trkpt>
      <trkpt lat="31.75000000" lon="35.09337000">
        <ele>462.00000</ele>
        <time>2010-01-01T02:49:58Z</time>
      </trkpt>
      <trkpt lat="31.75046000" lon="35.09330000">
        <ele>459.00000</ele>
        <time>2010-01-01T02:50:17Z</time>
      </trkpt>
      <trkpt lat="31.75059000" lon="35.09325000">
        <ele>460.00000</ele>
        <time>2010-01-01T02:50:22Z</time>
      </trkpt>
      <trkpt lat="31.75078000" lon="35.09313000">
        <ele>464.00000</ele>
        <time>2010-01-01T02:50:31Z</time>
      </trkpt>
      <trkpt lat="31.75087000" lon="35.09300000">
        <ele>466.00000</ele>
        <time>2010-01-01T02:50:37Z</time>
      </trkpt>
      <trkpt lat="31.75091000" lon="35.09288000">
        <ele>467.00000</ele>
        <time>2010-01-01T02:50:41Z</time>
      </trkpt>
      <trkpt lat="31.75096000" lon="35.09266000">
        <ele>466.00000</ele>
        <time>2010-01-01T02:50:49Z</time>
      </trkpt>
      <trkpt lat="31.75098000" lon="35.09248000">
        <ele>463.00000</ele>
        <time>2010-01-01T02:50:55Z</time>
      </trkpt>
      <trkpt lat="31.75098000" lon="35.09222000">
        <ele>462.00000</ele>
        <time>2010-01-01T02:51:04Z</time>
      </trkpt>
      <trkpt lat="31.75093000" lon="35.09205000">
        <ele>461.00000</ele>
        <time>2010-01-01T02:51:10Z</time>
      </trkpt>
      <trkpt lat="31.75071000" lon="35.09171000">
        <ele>456.00000</ele>
        <time>2010-01-01T02:51:25Z</time>
      </trkpt>
      <trkpt lat="31.75061000" lon="35.09148000">
        <ele>454.00000</ele>
        <time>2010-01-01T02:51:33Z</time>
      </trkpt>
      <trkpt lat="31.75056000" lon="35.09127000">
        <ele>452.00000</ele>
        <time>2010-01-01T02:51:41Z</time>
      </trkpt>
      <trkpt lat="31.75048000" lon="35.09073000">
        <ele>451.00000</ele>
        <time>2010-01-01T02:51:59Z</time>
      </trkpt>
      <trkpt lat="31.75047000" lon="35.09041000">
        <ele>449.00000</ele>
        <time>2010-01-01T02:52:10Z</time>
      </trkpt>
      <trkpt lat="31.75051000" lon="35.09014000">
        <ele>449.00000</ele>
        <time>2010-01-01T02:52:20Z</time>
      </trkpt>
      <trkpt lat="31.75056000" lon="35.08998000">
        <ele>451.00000</ele>
        <time>2010-01-01T02:52:26Z</time>
      </trkpt>
      <trkpt lat="31.75075000" lon="35.08962000">
        <ele>453.00000</ele>
        <time>2010-01-01T02:52:40Z</time>
      </trkpt>
      <trkpt lat="31.75080000" lon="35.08944000">
        <ele>452.00000</ele>
        <time>2010-01-01T02:52:46Z</time>
      </trkpt>
      <trkpt lat="31.75084000" lon="35.08921000">
        <ele>453.00000</ele>
        <time>2010-01-01T02:52:54Z</time>
      </trkpt>
      <trkpt lat="31.75086000" lon="35.08879000">
        <ele>453.00000</ele>
        <time>2010-01-01T02:53:09Z</time>
      </trkpt>
      <trkpt lat="31.75086000" lon="35.08878000">
        <ele>453.00000</ele>
        <time>2010-01-01T02:53:09Z</time>
      </trkpt>
      <trkpt lat="31.75083000" lon="35.08850000">
        <ele>452.00000</ele>
        <time>2010-01-01T02:53:19Z</time>
      </trkpt>
      <trkpt lat="31.75080000" lon="35.08842000">
        <ele>452.00000</ele>
        <time>2010-01-01T02:53:22Z</time>
      </trkpt>
      <trkpt lat="31.75074000" lon="35.08832000">
        <ele>450.00000</ele>
        <time>2010-01-01T02:53:26Z</time>
      </trkpt>
      <trkpt lat="31.75059000" lon="35.08813000">
        <ele>447.00000</ele>
        <time>2010-01-01T02:53:35Z</time>
      </trkpt>
      <trkpt lat="31.75049000" lon="35.08799000">
        <ele>446.00000</ele>
        <time>2010-01-01T02:53:41Z</time>
      </trkpt>
      <trkpt lat="31.75021000" lon="35.08749000">
        <ele>445.00000</ele>
        <time>2010-01-01T02:54:01Z</time>
      </trkpt>
      <trkpt lat="31.75005000" lon="35.08712000">
        <ele>444.00000</ele>
        <time>2010-01-01T02:54:15Z</time>
      </trkpt>
      <trkpt lat="31.74981000" lon="35.08669000">
        <ele>443.00000</ele>
        <time>2010-01-01T02:54:33Z</time>
      </trkpt>
      <trkpt lat="31.74975000" lon="35.08653000">
        <ele>443.00000</ele>
        <time>2010-01-01T02:54:39Z</time>
      </trkpt>
      <trkpt lat="31.74974000" lon="35.08643000">
        <ele>443.00000</ele>
        <time>2010-01-01T02:54:42Z</time>
      </trkpt>
      <trkpt lat="31.74976000" lon="35.08629000">
        <ele>443.00000</ele>
        <time>2010-01-01T02:54:47Z</time>
      </trkpt>
      <trkpt lat="31.74982000" lon="35.08614000">
        <ele>444.00000</ele>
        <time>2010-01-01T02:54:53Z</time>
      </trkpt>
      <trkpt lat="31.74989000" lon="35.08605000">
        <ele>444.00000</ele>
        <time>2010-01-01T02:54:57Z</time>
      </trkpt>
      <trkpt lat="31.75025000" lon="35.08573000">
        <ele>444.00000</ele>
        <time>2010-01-01T02:55:15Z</time>
      </trkpt>
      <trkpt lat="31.75042000" lon="35.08559000">
        <ele>443.00000</ele>
        <time>2010-01-01T02:55:23Z</time>
      </trkpt>
      <trkpt lat="31.75051000" lon="35.08555000">
        <ele>443.00000</ele>
        <time>2010-01-01T02:55:27Z</time>
      </trkpt>
      <trkpt lat="31.75063000" lon="35.08553000">
        <ele>443.00000</ele>
        <time>2010-01-01T02:55:32Z</time>
      </trkpt>
      <trkpt lat="31.75166000" lon="35.08563000">
        <ele>446.00000</ele>
        <time>2010-01-01T02:56:13Z</time>
      </trkpt>
      <trkpt lat="31.75184000" lon="35.08563000">
        <ele>444.00000</ele>
        <time>2010-01-01T02:56:21Z</time>
      </trkpt>
      <trkpt lat="31.75220000" lon="35.08559000">
        <ele>440.00000</ele>
        <time>2010-01-01T02:56:35Z</time>
      </trkpt>
      <trkpt lat="31.75288000" lon="35.08559000">
        <ele>440.00000</ele>
        <time>2010-01-01T02:57:02Z</time>
      </trkpt>
      <trkpt lat="31.75313000" lon="35.08564000">
        <ele>439.00000</ele>
        <time>2010-01-01T02:57:12Z</time>
      </trkpt>
      <trkpt lat="31.75325000" lon="35.08570000">
        <ele>439.00000</ele>
        <time>2010-01-01T02:57:18Z</time>
      </trkpt>
      <trkpt lat="31.75334000" lon="35.08578000">
        <ele>438.00000</ele>
        <time>2010-01-01T02:57:22Z</time>
      </trkpt>
      <trkpt lat="31.75345000" lon="35.08592000">
        <ele>438.00000</ele>
        <time>2010-01-01T02:57:29Z</time>
      </trkpt>
      <trkpt lat="31.75351000" lon="35.08604000">
        <ele>438.00000</ele>
        <time>2010-01-01T02:57:33Z</time>
      </trkpt>
      <trkpt lat="31.75371000" lon="35.08681000">
        <ele>440.00000</ele>
        <time>2010-01-01T02:58:01Z</time>
      </trkpt>
      <trkpt lat="31.75376000" lon="35.08710000">
        <ele>439.00000</ele>
        <time>2010-01-01T02:58:11Z</time>
      </trkpt>
      <trkpt lat="31.75389000" lon="35.08773000">
        <ele>436.00000</ele>
        <time>2010-01-01T02:58:33Z</time>
      </trkpt>
      <trkpt lat="31.75398000" lon="35.08798000">
        <ele>438.00000</ele>
        <time>2010-01-01T02:58:42Z</time>
      </trkpt>
      <trkpt lat="31.75410000" lon="35.08821000">
        <ele>442.00000</ele>
        <time>2010-01-01T02:58:51Z</time>
      </trkpt>
      <trkpt lat="31.75428000" lon="35.08846000">
        <ele>443.00000</ele>
        <time>2010-01-01T02:59:02Z</time>
      </trkpt>
      <trkpt lat="31.75438000" lon="35.08855000">
        <ele>442.00000</ele>
        <time>2010-01-01T02:59:07Z</time>
      </trkpt>
      <trkpt lat="31.75438000" lon="35.08854000">
        <ele>442.00000</ele>
        <time>2010-01-01T02:59:08Z</time>
      </trkpt>
      <trkpt lat="31.75442000" lon="35.08859000">
        <ele>441.00000</ele>
        <time>2010-01-01T02:59:10Z</time>
      </trkpt>
      <trkpt lat="31.75483000" lon="35.08881000">
        <ele>436.00000</ele>
        <time>2010-01-01T02:59:28Z</time>
      </trkpt>
      <trkpt lat="31.75521000" lon="35.08898000">
        <ele>433.00000</ele>
        <time>2010-01-01T02:59:44Z</time>
      </trkpt>
      <trkpt lat="31.75531000" lon="35.08900000">
        <ele>433.00000</ele>
        <time>2010-01-01T02:59:49Z</time>
      </trkpt>
      <trkpt lat="31.75564000" lon="35.08897000">
        <ele>435.00000</ele>
        <time>2010-01-01T03:00:02Z</time>
      </trkpt>
      <trkpt lat="31.75573000" lon="35.08899000">
        <ele>435.00000</ele>
        <time>2010-01-01T03:00:05Z</time>
      </trkpt>
      <trkpt lat="31.75580000" lon="35.08903000">
        <ele>435.00000</ele>
        <time>2010-01-01T03:00:09Z</time>
      </trkpt>
      <trkpt lat="31.75607000" lon="35.08928000">
        <ele>432.00000</ele>
        <time>2010-01-01T03:00:22Z</time>
      </trkpt>
      <trkpt lat="31.75637000" lon="35.08951000">
        <ele>430.00000</ele>
        <time>2010-01-01T03:00:37Z</time>
      </trkpt>
      <trkpt lat="31.75656000" lon="35.08960000">
        <ele>433.00000</ele>
        <time>2010-01-01T03:00:45Z</time>
      </trkpt>
      <trkpt lat="31.75669000" lon="35.08963000">
        <ele>434.00000</ele>
        <time>2010-01-01T03:00:50Z</time>
      </trkpt>
      <trkpt lat="31.75704000" lon="35.08962000">
        <ele>431.00000</ele>
        <time>2010-01-01T03:01:04Z</time>
      </trkpt>
      <trkpt lat="31.75724000" lon="35.08955000">
        <ele>430.00000</ele>
        <time>2010-01-01T03:01:13Z</time>
      </trkpt>
      <trkpt lat="31.75746000" lon="35.08938000">
        <ele>429.00000</ele>
        <time>2010-01-01T03:01:23Z</time>
      </trkpt>
      <trkpt lat="31.75755000" lon="35.08933000">
        <ele>428.00000</ele>
        <time>2010-01-01T03:01:27Z</time>
      </trkpt>
      <trkpt lat="31.75771000" lon="35.08928000">
        <ele>427.00000</ele>
        <time>2010-01-01T03:01:34Z</time>
      </trkpt>
      <trkpt lat="31.75802000" lon="35.08923000">
        <ele>424.00000</ele>
        <time>2010-01-01T03:01:46Z</time>
      </trkpt>
      <trkpt lat="31.75818000" lon="35.08924000">
        <ele>423.00000</ele>
        <time>2010-01-01T03:01:53Z</time>
      </trkpt>
      <trkpt lat="31.75813000" lon="35.08955000">
        <ele>425.00000</ele>
        <time>2010-01-01T03:02:03Z</time>
      </trkpt>
      <trkpt lat="31.75820000" lon="35.08958000">
        <ele>424.00000</ele>
        <time>2010-01-01T03:02:06Z</time>
      </trkpt>
      <trkpt lat="31.75825000" lon="35.08956000">
        <ele>423.00000</ele>
        <time>2010-01-01T03:02:08Z</time>
      </trkpt>
      <trkpt lat="31.75828000" lon="35.08949000">
        <ele>422.00000</ele>
        <time>2010-01-01T03:02:11Z</time>
      </trkpt>
      <trkpt lat="31.75830000" lon="35.08938000">
        <ele>422.00000</ele>
        <time>2010-01-01T03:02:15Z</time>
      </trkpt>
    </trkseg>
  </trk>
</gpx>

